<?xml version="1.0" encoding="UTF-8" standalone="no" ?>
<gpx xmlns="http://www.topografix.com/GPX/1/1" xmlns:xsi="http://www.w3.org/2001/XMLSchema-instance" xsi:schemaLocation="http://www.topografix.com/GPX/1/1 http://www.topografix.com/GPX/1/1/gpx.xsd" version="1.1" creator="VisuGPX - https://www.visugpx.com">
  <metadata>
    <name>#FONT/ Balade arbres et dune quaternaire ***</name>
    <desc><![CDATA[Départ du monument Poli, dune et inscriptions]]></desc>
  </metadata>
  <trk>
    <name><![CDATA[21-AOU-16 12:05:04 PM]]></name>
    <trkseg>
      <trkpt lat="48.35555" lon="2.6186">
        <ele>123.19</ele>
        <time>2016-08-21T07:04:34Z</time>
      </trkpt>
      <trkpt lat="48.35554" lon="2.61859">
        <ele>126.55</ele>
        <time>2016-08-21T07:04:45Z</time>
      </trkpt>
      <trkpt lat="48.35554" lon="2.61859">
        <ele>129.43</ele>
        <time>2016-08-21T07:04:52Z</time>
      </trkpt>
      <trkpt lat="48.35556" lon="2.61859">
        <ele>132.32</ele>
        <time>2016-08-21T07:05:05Z</time>
      </trkpt>
      <trkpt lat="48.35557" lon="2.6186">
        <ele>133.76</ele>
        <time>2016-08-21T07:05:26Z</time>
      </trkpt>
      <trkpt lat="48.35553" lon="2.61861">
        <ele>133.76</ele>
        <time>2016-08-21T07:05:35Z</time>
      </trkpt>
      <trkpt lat="48.35545" lon="2.61852">
        <ele>133.28</ele>
        <time>2016-08-21T07:05:47Z</time>
      </trkpt>
      <trkpt lat="48.3554" lon="2.61834">
        <ele>133.28</ele>
        <time>2016-08-21T07:06:00Z</time>
      </trkpt>
      <trkpt lat="48.35539" lon="2.61816">
        <ele>133.28</ele>
        <time>2016-08-21T07:06:12Z</time>
      </trkpt>
      <trkpt lat="48.3554" lon="2.61809">
        <ele>133.28</ele>
        <time>2016-08-21T07:06:16Z</time>
      </trkpt>
      <trkpt lat="48.3554" lon="2.61804">
        <ele>133.28</ele>
        <time>2016-08-21T07:06:19Z</time>
      </trkpt>
      <trkpt lat="48.35541" lon="2.61791">
        <ele>132.8</ele>
        <time>2016-08-21T07:06:33Z</time>
      </trkpt>
      <trkpt lat="48.35542" lon="2.61786">
        <ele>133.28</ele>
        <time>2016-08-21T07:06:48Z</time>
      </trkpt>
      <trkpt lat="48.35543" lon="2.61766">
        <ele>132.8</ele>
        <time>2016-08-21T07:06:59Z</time>
      </trkpt>
      <trkpt lat="48.35543" lon="2.61755">
        <ele>133.28</ele>
        <time>2016-08-21T07:07:04Z</time>
      </trkpt>
      <trkpt lat="48.35544" lon="2.61733">
        <ele>133.28</ele>
        <time>2016-08-21T07:07:17Z</time>
      </trkpt>
      <trkpt lat="48.35543" lon="2.61715">
        <ele>132.8</ele>
        <time>2016-08-21T07:07:29Z</time>
      </trkpt>
      <trkpt lat="48.35544" lon="2.61707">
        <ele>132.8</ele>
        <time>2016-08-21T07:07:34Z</time>
      </trkpt>
      <trkpt lat="48.35544" lon="2.61687">
        <ele>133.28</ele>
        <time>2016-08-21T07:07:47Z</time>
      </trkpt>
      <trkpt lat="48.35546" lon="2.61668">
        <ele>132.8</ele>
        <time>2016-08-21T07:08:00Z</time>
      </trkpt>
      <trkpt lat="48.35546" lon="2.61655">
        <ele>132.8</ele>
        <time>2016-08-21T07:08:08Z</time>
      </trkpt>
      <trkpt lat="48.35547" lon="2.61643">
        <ele>133.28</ele>
        <time>2016-08-21T07:08:15Z</time>
      </trkpt>
      <trkpt lat="48.35546" lon="2.61625">
        <ele>132.32</ele>
        <time>2016-08-21T07:08:27Z</time>
      </trkpt>
      <trkpt lat="48.35547" lon="2.61616">
        <ele>132.32</ele>
        <time>2016-08-21T07:08:33Z</time>
      </trkpt>
      <trkpt lat="48.35547" lon="2.61601">
        <ele>132.32</ele>
        <time>2016-08-21T07:08:44Z</time>
      </trkpt>
      <trkpt lat="48.35546" lon="2.61583">
        <ele>132.32</ele>
        <time>2016-08-21T07:08:54Z</time>
      </trkpt>
      <trkpt lat="48.35546" lon="2.61573">
        <ele>132.32</ele>
        <time>2016-08-21T07:09:00Z</time>
      </trkpt>
      <trkpt lat="48.35547" lon="2.61548">
        <ele>131.36</ele>
        <time>2016-08-21T07:09:14Z</time>
      </trkpt>
      <trkpt lat="48.35549" lon="2.61529">
        <ele>131.36</ele>
        <time>2016-08-21T07:09:25Z</time>
      </trkpt>
      <trkpt lat="48.3555" lon="2.61505">
        <ele>131.36</ele>
        <time>2016-08-21T07:09:39Z</time>
      </trkpt>
      <trkpt lat="48.35551" lon="2.61491">
        <ele>131.36</ele>
        <time>2016-08-21T07:09:47Z</time>
      </trkpt>
      <trkpt lat="48.35551" lon="2.61486">
        <ele>130.88</ele>
        <time>2016-08-21T07:09:49Z</time>
      </trkpt>
      <trkpt lat="48.35551" lon="2.61469">
        <ele>131.84</ele>
        <time>2016-08-21T07:09:58Z</time>
      </trkpt>
      <trkpt lat="48.35553" lon="2.6145">
        <ele>130.88</ele>
        <time>2016-08-21T07:10:09Z</time>
      </trkpt>
      <trkpt lat="48.35553" lon="2.61427">
        <ele>130.88</ele>
        <time>2016-08-21T07:10:22Z</time>
      </trkpt>
      <trkpt lat="48.35555" lon="2.61404">
        <ele>130.4</ele>
        <time>2016-08-21T07:10:34Z</time>
      </trkpt>
      <trkpt lat="48.35555" lon="2.61401">
        <ele>130.4</ele>
        <time>2016-08-21T07:10:36Z</time>
      </trkpt>
      <trkpt lat="48.35555" lon="2.61393">
        <ele>130.4</ele>
        <time>2016-08-21T07:10:42Z</time>
      </trkpt>
      <trkpt lat="48.35555" lon="2.61382">
        <ele>130.4</ele>
        <time>2016-08-21T07:10:47Z</time>
      </trkpt>
      <trkpt lat="48.35557" lon="2.61358">
        <ele>130.4</ele>
        <time>2016-08-21T07:10:59Z</time>
      </trkpt>
      <trkpt lat="48.3556" lon="2.61331">
        <ele>129.92</ele>
        <time>2016-08-21T07:11:14Z</time>
      </trkpt>
      <trkpt lat="48.3556" lon="2.61324">
        <ele>129.92</ele>
        <time>2016-08-21T07:11:18Z</time>
      </trkpt>
      <trkpt lat="48.3556" lon="2.6132">
        <ele>129.43</ele>
        <time>2016-08-21T07:11:20Z</time>
      </trkpt>
      <trkpt lat="48.3556" lon="2.61301">
        <ele>129.92</ele>
        <time>2016-08-21T07:11:30Z</time>
      </trkpt>
      <trkpt lat="48.3556" lon="2.61291">
        <ele>129.43</ele>
        <time>2016-08-21T07:11:36Z</time>
      </trkpt>
      <trkpt lat="48.35564" lon="2.61271">
        <ele>128.95</ele>
        <time>2016-08-21T07:11:51Z</time>
      </trkpt>
      <trkpt lat="48.35564" lon="2.61264">
        <ele>129.43</ele>
        <time>2016-08-21T07:11:54Z</time>
      </trkpt>
      <trkpt lat="48.35563" lon="2.61254">
        <ele>128.47</ele>
        <time>2016-08-21T07:11:59Z</time>
      </trkpt>
      <trkpt lat="48.35564" lon="2.61238">
        <ele>128.95</ele>
        <time>2016-08-21T07:12:08Z</time>
      </trkpt>
      <trkpt lat="48.35564" lon="2.61234">
        <ele>128.47</ele>
        <time>2016-08-21T07:12:10Z</time>
      </trkpt>
      <trkpt lat="48.35563" lon="2.61227">
        <ele>128.95</ele>
        <time>2016-08-21T07:12:14Z</time>
      </trkpt>
      <trkpt lat="48.35565" lon="2.61201">
        <ele>128.95</ele>
        <time>2016-08-21T07:12:29Z</time>
      </trkpt>
      <trkpt lat="48.35568" lon="2.61172">
        <ele>128.47</ele>
        <time>2016-08-21T07:12:46Z</time>
      </trkpt>
      <trkpt lat="48.35566" lon="2.61148">
        <ele>128.95</ele>
        <time>2016-08-21T07:12:59Z</time>
      </trkpt>
      <trkpt lat="48.35566" lon="2.61142">
        <ele>128.95</ele>
        <time>2016-08-21T07:13:03Z</time>
      </trkpt>
      <trkpt lat="48.35568" lon="2.61118">
        <ele>128.95</ele>
        <time>2016-08-21T07:13:17Z</time>
      </trkpt>
      <trkpt lat="48.35569" lon="2.61097">
        <ele>128.95</ele>
        <time>2016-08-21T07:13:30Z</time>
      </trkpt>
      <trkpt lat="48.35571" lon="2.6108">
        <ele>128.95</ele>
        <time>2016-08-21T07:13:39Z</time>
      </trkpt>
      <trkpt lat="48.3557" lon="2.61063">
        <ele>129.43</ele>
        <time>2016-08-21T07:13:47Z</time>
      </trkpt>
      <trkpt lat="48.3557" lon="2.61057">
        <ele>129.43</ele>
        <time>2016-08-21T07:13:50Z</time>
      </trkpt>
      <trkpt lat="48.3557" lon="2.61051">
        <ele>129.43</ele>
        <time>2016-08-21T07:13:53Z</time>
      </trkpt>
      <trkpt lat="48.35571" lon="2.61026">
        <ele>129.43</ele>
        <time>2016-08-21T07:14:06Z</time>
      </trkpt>
      <trkpt lat="48.35571" lon="2.61006">
        <ele>129.43</ele>
        <time>2016-08-21T07:14:19Z</time>
      </trkpt>
      <trkpt lat="48.35573" lon="2.60991">
        <ele>129.43</ele>
        <time>2016-08-21T07:14:29Z</time>
      </trkpt>
      <trkpt lat="48.35573" lon="2.6098">
        <ele>129.43</ele>
        <time>2016-08-21T07:14:35Z</time>
      </trkpt>
      <trkpt lat="48.35573" lon="2.60972">
        <ele>129.43</ele>
        <time>2016-08-21T07:14:41Z</time>
      </trkpt>
      <trkpt lat="48.35576" lon="2.60945">
        <ele>129.92</ele>
        <time>2016-08-21T07:14:56Z</time>
      </trkpt>
      <trkpt lat="48.35576" lon="2.6092">
        <ele>130.4</ele>
        <time>2016-08-21T07:15:10Z</time>
      </trkpt>
      <trkpt lat="48.35576" lon="2.60898">
        <ele>129.43</ele>
        <time>2016-08-21T07:15:23Z</time>
      </trkpt>
      <trkpt lat="48.35579" lon="2.60896">
        <ele>129.43</ele>
        <time>2016-08-21T07:15:31Z</time>
      </trkpt>
      <trkpt lat="48.35593" lon="2.60898">
        <ele>129.43</ele>
        <time>2016-08-21T07:15:42Z</time>
      </trkpt>
      <trkpt lat="48.35603" lon="2.60901">
        <ele>129.43</ele>
        <time>2016-08-21T07:15:52Z</time>
      </trkpt>
      <trkpt lat="48.35614" lon="2.60901">
        <ele>129.43</ele>
        <time>2016-08-21T07:16:07Z</time>
      </trkpt>
      <trkpt lat="48.3562" lon="2.60893">
        <ele>129.43</ele>
        <time>2016-08-21T07:16:19Z</time>
      </trkpt>
      <trkpt lat="48.35619" lon="2.60898">
        <ele>128.95</ele>
        <time>2016-08-21T07:16:31Z</time>
      </trkpt>
      <trkpt lat="48.35622" lon="2.60899">
        <ele>128.95</ele>
        <time>2016-08-21T07:16:36Z</time>
      </trkpt>
      <trkpt lat="48.3564" lon="2.60907">
        <ele>128.47</ele>
        <time>2016-08-21T07:16:49Z</time>
      </trkpt>
      <trkpt lat="48.35656" lon="2.60909">
        <ele>128.95</ele>
        <time>2016-08-21T07:17:02Z</time>
      </trkpt>
      <trkpt lat="48.35673" lon="2.60906">
        <ele>128.95</ele>
        <time>2016-08-21T07:17:17Z</time>
      </trkpt>
      <trkpt lat="48.35684" lon="2.60904">
        <ele>128.95</ele>
        <time>2016-08-21T07:17:28Z</time>
      </trkpt>
      <trkpt lat="48.35699" lon="2.60903">
        <ele>129.43</ele>
        <time>2016-08-21T07:17:42Z</time>
      </trkpt>
      <trkpt lat="48.3571" lon="2.60901">
        <ele>129.43</ele>
        <time>2016-08-21T07:17:54Z</time>
      </trkpt>
      <trkpt lat="48.35723" lon="2.60901">
        <ele>128.95</ele>
        <time>2016-08-21T07:18:05Z</time>
      </trkpt>
      <trkpt lat="48.35735" lon="2.60899">
        <ele>128.47</ele>
        <time>2016-08-21T07:18:16Z</time>
      </trkpt>
      <trkpt lat="48.35751" lon="2.60899">
        <ele>128.95</ele>
        <time>2016-08-21T07:18:29Z</time>
      </trkpt>
      <trkpt lat="48.35763" lon="2.60899">
        <ele>128.47</ele>
        <time>2016-08-21T07:18:44Z</time>
      </trkpt>
      <trkpt lat="48.35783" lon="2.60898">
        <ele>128.47</ele>
        <time>2016-08-21T07:18:57Z</time>
      </trkpt>
      <trkpt lat="48.35791" lon="2.60898">
        <ele>128.47</ele>
        <time>2016-08-21T07:19:03Z</time>
      </trkpt>
      <trkpt lat="48.35795" lon="2.609">
        <ele>128.47</ele>
        <time>2016-08-21T07:19:06Z</time>
      </trkpt>
      <trkpt lat="48.35802" lon="2.60898">
        <ele>128.47</ele>
        <time>2016-08-21T07:19:11Z</time>
      </trkpt>
      <trkpt lat="48.35806" lon="2.60897">
        <ele>128.95</ele>
        <time>2016-08-21T07:19:15Z</time>
      </trkpt>
      <trkpt lat="48.35825" lon="2.60894">
        <ele>129.43</ele>
        <time>2016-08-21T07:19:30Z</time>
      </trkpt>
      <trkpt lat="48.35829" lon="2.60892">
        <ele>128.47</ele>
        <time>2016-08-21T07:19:44Z</time>
      </trkpt>
      <trkpt lat="48.35836" lon="2.60889">
        <ele>128.47</ele>
        <time>2016-08-21T07:19:59Z</time>
      </trkpt>
      <trkpt lat="48.35841" lon="2.60893">
        <ele>128.47</ele>
        <time>2016-08-21T07:20:15Z</time>
      </trkpt>
      <trkpt lat="48.35849" lon="2.60894">
        <ele>128.47</ele>
        <time>2016-08-21T07:20:32Z</time>
      </trkpt>
      <trkpt lat="48.35854" lon="2.60894">
        <ele>128.95</ele>
        <time>2016-08-21T07:20:38Z</time>
      </trkpt>
      <trkpt lat="48.35865" lon="2.60894">
        <ele>128.95</ele>
        <time>2016-08-21T07:20:43Z</time>
      </trkpt>
      <trkpt lat="48.35883" lon="2.60892">
        <ele>128.95</ele>
        <time>2016-08-21T07:20:58Z</time>
      </trkpt>
      <trkpt lat="48.3589" lon="2.60872">
        <ele>128.95</ele>
        <time>2016-08-21T07:21:10Z</time>
      </trkpt>
      <trkpt lat="48.3589" lon="2.60866">
        <ele>128.47</ele>
        <time>2016-08-21T07:21:14Z</time>
      </trkpt>
      <trkpt lat="48.3589" lon="2.60846">
        <ele>128.47</ele>
        <time>2016-08-21T07:21:27Z</time>
      </trkpt>
      <trkpt lat="48.3589" lon="2.60842">
        <ele>128.95</ele>
        <time>2016-08-21T07:21:30Z</time>
      </trkpt>
      <trkpt lat="48.35889" lon="2.60825">
        <ele>128.47</ele>
        <time>2016-08-21T07:21:41Z</time>
      </trkpt>
      <trkpt lat="48.35888" lon="2.60814">
        <ele>127.99</ele>
        <time>2016-08-21T07:21:47Z</time>
      </trkpt>
      <trkpt lat="48.35889" lon="2.60803">
        <ele>128.95</ele>
        <time>2016-08-21T07:21:54Z</time>
      </trkpt>
      <trkpt lat="48.35889" lon="2.60775">
        <ele>127.99</ele>
        <time>2016-08-21T07:22:09Z</time>
      </trkpt>
      <trkpt lat="48.35888" lon="2.6075">
        <ele>127.99</ele>
        <time>2016-08-21T07:22:23Z</time>
      </trkpt>
      <trkpt lat="48.35888" lon="2.60747">
        <ele>127.99</ele>
        <time>2016-08-21T07:22:25Z</time>
      </trkpt>
      <trkpt lat="48.3589" lon="2.60723">
        <ele>127.99</ele>
        <time>2016-08-21T07:22:40Z</time>
      </trkpt>
      <trkpt lat="48.35891" lon="2.60714">
        <ele>127.51</ele>
        <time>2016-08-21T07:22:46Z</time>
      </trkpt>
      <trkpt lat="48.35891" lon="2.60707">
        <ele>127.51</ele>
        <time>2016-08-21T07:22:51Z</time>
      </trkpt>
      <trkpt lat="48.3589" lon="2.60696">
        <ele>127.51</ele>
        <time>2016-08-21T07:22:59Z</time>
      </trkpt>
      <trkpt lat="48.3589" lon="2.60677">
        <ele>127.51</ele>
        <time>2016-08-21T07:23:07Z</time>
      </trkpt>
      <trkpt lat="48.3589" lon="2.60665">
        <ele>127.03</ele>
        <time>2016-08-21T07:23:14Z</time>
      </trkpt>
      <trkpt lat="48.35891" lon="2.60657">
        <ele>127.03</ele>
        <time>2016-08-21T07:23:18Z</time>
      </trkpt>
      <trkpt lat="48.35891" lon="2.60635">
        <ele>127.03</ele>
        <time>2016-08-21T07:23:31Z</time>
      </trkpt>
      <trkpt lat="48.3589" lon="2.60623">
        <ele>127.03</ele>
        <time>2016-08-21T07:23:38Z</time>
      </trkpt>
      <trkpt lat="48.35891" lon="2.60601">
        <ele>126.55</ele>
        <time>2016-08-21T07:23:51Z</time>
      </trkpt>
      <trkpt lat="48.35892" lon="2.60597">
        <ele>126.55</ele>
        <time>2016-08-21T07:23:54Z</time>
      </trkpt>
      <trkpt lat="48.35897" lon="2.60584">
        <ele>127.03</ele>
        <time>2016-08-21T07:24:04Z</time>
      </trkpt>
      <trkpt lat="48.35906" lon="2.60558">
        <ele>126.55</ele>
        <time>2016-08-21T07:24:21Z</time>
      </trkpt>
      <trkpt lat="48.35915" lon="2.60538">
        <ele>125.59</ele>
        <time>2016-08-21T07:24:35Z</time>
      </trkpt>
      <trkpt lat="48.3592" lon="2.60518">
        <ele>127.03</ele>
        <time>2016-08-21T07:24:47Z</time>
      </trkpt>
      <trkpt lat="48.35925" lon="2.60503">
        <ele>126.07</ele>
        <time>2016-08-21T07:24:59Z</time>
      </trkpt>
      <trkpt lat="48.35931" lon="2.60486">
        <ele>126.07</ele>
        <time>2016-08-21T07:25:10Z</time>
      </trkpt>
      <trkpt lat="48.35939" lon="2.60463">
        <ele>126.55</ele>
        <time>2016-08-21T07:25:26Z</time>
      </trkpt>
      <trkpt lat="48.35947" lon="2.60445">
        <ele>126.07</ele>
        <time>2016-08-21T07:25:40Z</time>
      </trkpt>
      <trkpt lat="48.35955" lon="2.60427">
        <ele>125.11</ele>
        <time>2016-08-21T07:25:53Z</time>
      </trkpt>
      <trkpt lat="48.35963" lon="2.60419">
        <ele>126.07</ele>
        <time>2016-08-21T07:26:03Z</time>
      </trkpt>
      <trkpt lat="48.35971" lon="2.60394">
        <ele>125.59</ele>
        <time>2016-08-21T07:26:20Z</time>
      </trkpt>
      <trkpt lat="48.35979" lon="2.60377">
        <ele>125.11</ele>
        <time>2016-08-21T07:26:34Z</time>
      </trkpt>
      <trkpt lat="48.3598" lon="2.60376">
        <ele>125.11</ele>
        <time>2016-08-21T07:26:35Z</time>
      </trkpt>
      <trkpt lat="48.35983" lon="2.60363">
        <ele>125.11</ele>
        <time>2016-08-21T07:26:43Z</time>
      </trkpt>
      <trkpt lat="48.35988" lon="2.6035">
        <ele>125.11</ele>
        <time>2016-08-21T07:26:53Z</time>
      </trkpt>
      <trkpt lat="48.35994" lon="2.60334">
        <ele>125.11</ele>
        <time>2016-08-21T07:27:03Z</time>
      </trkpt>
      <trkpt lat="48.36001" lon="2.60314">
        <ele>124.63</ele>
        <time>2016-08-21T07:27:15Z</time>
      </trkpt>
      <trkpt lat="48.36003" lon="2.60306">
        <ele>124.15</ele>
        <time>2016-08-21T07:27:18Z</time>
      </trkpt>
      <trkpt lat="48.36009" lon="2.60281">
        <ele>124.15</ele>
        <time>2016-08-21T07:27:31Z</time>
      </trkpt>
      <trkpt lat="48.36017" lon="2.60263">
        <ele>124.63</ele>
        <time>2016-08-21T07:27:43Z</time>
      </trkpt>
      <trkpt lat="48.36023" lon="2.60243">
        <ele>124.63</ele>
        <time>2016-08-21T07:27:54Z</time>
      </trkpt>
      <trkpt lat="48.36032" lon="2.60222">
        <ele>124.15</ele>
        <time>2016-08-21T07:28:07Z</time>
      </trkpt>
      <trkpt lat="48.36037" lon="2.60199">
        <ele>124.15</ele>
        <time>2016-08-21T07:28:20Z</time>
      </trkpt>
      <trkpt lat="48.36042" lon="2.60184">
        <ele>124.63</ele>
        <time>2016-08-21T07:28:29Z</time>
      </trkpt>
      <trkpt lat="48.36047" lon="2.60173">
        <ele>124.63</ele>
        <time>2016-08-21T07:28:37Z</time>
      </trkpt>
      <trkpt lat="48.36049" lon="2.60166">
        <ele>124.15</ele>
        <time>2016-08-21T07:28:41Z</time>
      </trkpt>
      <trkpt lat="48.36051" lon="2.6016">
        <ele>124.63</ele>
        <time>2016-08-21T07:28:45Z</time>
      </trkpt>
      <trkpt lat="48.36052" lon="2.60155">
        <ele>124.63</ele>
        <time>2016-08-21T07:28:48Z</time>
      </trkpt>
      <trkpt lat="48.36056" lon="2.60147">
        <ele>124.63</ele>
        <time>2016-08-21T07:28:54Z</time>
      </trkpt>
      <trkpt lat="48.36058" lon="2.60143">
        <ele>124.63</ele>
        <time>2016-08-21T07:28:57Z</time>
      </trkpt>
      <trkpt lat="48.36062" lon="2.60129">
        <ele>124.63</ele>
        <time>2016-08-21T07:29:06Z</time>
      </trkpt>
      <trkpt lat="48.3607" lon="2.60109">
        <ele>124.15</ele>
        <time>2016-08-21T07:29:21Z</time>
      </trkpt>
      <trkpt lat="48.36073" lon="2.60105">
        <ele>125.11</ele>
        <time>2016-08-21T07:29:32Z</time>
      </trkpt>
      <trkpt lat="48.36078" lon="2.60092">
        <ele>125.11</ele>
        <time>2016-08-21T07:29:44Z</time>
      </trkpt>
      <trkpt lat="48.36083" lon="2.60085">
        <ele>124.63</ele>
        <time>2016-08-21T07:29:52Z</time>
      </trkpt>
      <trkpt lat="48.36091" lon="2.60072">
        <ele>125.11</ele>
        <time>2016-08-21T07:30:01Z</time>
      </trkpt>
      <trkpt lat="48.36097" lon="2.60065">
        <ele>124.63</ele>
        <time>2016-08-21T07:30:08Z</time>
      </trkpt>
      <trkpt lat="48.36104" lon="2.60048">
        <ele>124.63</ele>
        <time>2016-08-21T07:30:20Z</time>
      </trkpt>
      <trkpt lat="48.36105" lon="2.60046">
        <ele>124.63</ele>
        <time>2016-08-21T07:30:21Z</time>
      </trkpt>
      <trkpt lat="48.36109" lon="2.60031">
        <ele>124.63</ele>
        <time>2016-08-21T07:30:30Z</time>
      </trkpt>
      <trkpt lat="48.36115" lon="2.60003">
        <ele>124.63</ele>
        <time>2016-08-21T07:30:44Z</time>
      </trkpt>
      <trkpt lat="48.36117" lon="2.59995">
        <ele>124.63</ele>
        <time>2016-08-21T07:30:48Z</time>
      </trkpt>
      <trkpt lat="48.36123" lon="2.59977">
        <ele>125.11</ele>
        <time>2016-08-21T07:30:58Z</time>
      </trkpt>
      <trkpt lat="48.36125" lon="2.59964">
        <ele>125.11</ele>
        <time>2016-08-21T07:31:06Z</time>
      </trkpt>
      <trkpt lat="48.36126" lon="2.59958">
        <ele>124.63</ele>
        <time>2016-08-21T07:31:09Z</time>
      </trkpt>
      <trkpt lat="48.36135" lon="2.59937">
        <ele>124.63</ele>
        <time>2016-08-21T07:31:24Z</time>
      </trkpt>
      <trkpt lat="48.36145" lon="2.59915">
        <ele>125.11</ele>
        <time>2016-08-21T07:31:39Z</time>
      </trkpt>
      <trkpt lat="48.36152" lon="2.59903">
        <ele>124.63</ele>
        <time>2016-08-21T07:31:51Z</time>
      </trkpt>
      <trkpt lat="48.3616" lon="2.59886">
        <ele>124.63</ele>
        <time>2016-08-21T07:32:03Z</time>
      </trkpt>
      <trkpt lat="48.36166" lon="2.59867">
        <ele>124.15</ele>
        <time>2016-08-21T07:32:17Z</time>
      </trkpt>
      <trkpt lat="48.36173" lon="2.59841">
        <ele>124.63</ele>
        <time>2016-08-21T07:32:32Z</time>
      </trkpt>
      <trkpt lat="48.36184" lon="2.59821">
        <ele>124.63</ele>
        <time>2016-08-21T07:32:46Z</time>
      </trkpt>
      <trkpt lat="48.36194" lon="2.59802">
        <ele>124.15</ele>
        <time>2016-08-21T07:33:01Z</time>
      </trkpt>
      <trkpt lat="48.36201" lon="2.5978">
        <ele>124.15</ele>
        <time>2016-08-21T07:33:14Z</time>
      </trkpt>
      <trkpt lat="48.36202" lon="2.59775">
        <ele>123.67</ele>
        <time>2016-08-21T07:33:18Z</time>
      </trkpt>
      <trkpt lat="48.36203" lon="2.59772">
        <ele>123.67</ele>
        <time>2016-08-21T07:33:20Z</time>
      </trkpt>
      <trkpt lat="48.36208" lon="2.59754">
        <ele>123.19</ele>
        <time>2016-08-21T07:33:34Z</time>
      </trkpt>
      <trkpt lat="48.36213" lon="2.5974">
        <ele>123.19</ele>
        <time>2016-08-21T07:33:42Z</time>
      </trkpt>
      <trkpt lat="48.36219" lon="2.59726">
        <ele>123.67</ele>
        <time>2016-08-21T07:33:50Z</time>
      </trkpt>
      <trkpt lat="48.36225" lon="2.59715">
        <ele>123.19</ele>
        <time>2016-08-21T07:33:59Z</time>
      </trkpt>
      <trkpt lat="48.36229" lon="2.59698">
        <ele>123.67</ele>
        <time>2016-08-21T07:34:11Z</time>
      </trkpt>
      <trkpt lat="48.3624" lon="2.59679">
        <ele>123.19</ele>
        <time>2016-08-21T07:34:24Z</time>
      </trkpt>
      <trkpt lat="48.36243" lon="2.59663">
        <ele>122.71</ele>
        <time>2016-08-21T07:34:35Z</time>
      </trkpt>
      <trkpt lat="48.36246" lon="2.59655">
        <ele>122.71</ele>
        <time>2016-08-21T07:34:41Z</time>
      </trkpt>
      <trkpt lat="48.36253" lon="2.59638">
        <ele>122.22</ele>
        <time>2016-08-21T07:34:54Z</time>
      </trkpt>
      <trkpt lat="48.36264" lon="2.59614">
        <ele>122.22</ele>
        <time>2016-08-21T07:35:07Z</time>
      </trkpt>
      <trkpt lat="48.36266" lon="2.59605">
        <ele>121.74</ele>
        <time>2016-08-21T07:35:13Z</time>
      </trkpt>
      <trkpt lat="48.36269" lon="2.59596">
        <ele>121.74</ele>
        <time>2016-08-21T07:35:20Z</time>
      </trkpt>
      <trkpt lat="48.36277" lon="2.59583">
        <ele>121.26</ele>
        <time>2016-08-21T07:35:27Z</time>
      </trkpt>
      <trkpt lat="48.36282" lon="2.59575">
        <ele>121.26</ele>
        <time>2016-08-21T07:35:33Z</time>
      </trkpt>
      <trkpt lat="48.36287" lon="2.59567">
        <ele>121.26</ele>
        <time>2016-08-21T07:35:45Z</time>
      </trkpt>
      <trkpt lat="48.3629" lon="2.59563">
        <ele>121.26</ele>
        <time>2016-08-21T07:35:49Z</time>
      </trkpt>
      <trkpt lat="48.36298" lon="2.5956">
        <ele>121.26</ele>
        <time>2016-08-21T07:35:54Z</time>
      </trkpt>
      <trkpt lat="48.36309" lon="2.59559">
        <ele>121.26</ele>
        <time>2016-08-21T07:36:06Z</time>
      </trkpt>
      <trkpt lat="48.36318" lon="2.59556">
        <ele>121.74</ele>
        <time>2016-08-21T07:36:17Z</time>
      </trkpt>
      <trkpt lat="48.36333" lon="2.59556">
        <ele>121.74</ele>
        <time>2016-08-21T07:36:30Z</time>
      </trkpt>
      <trkpt lat="48.36354" lon="2.59556">
        <ele>122.22</ele>
        <time>2016-08-21T07:36:47Z</time>
      </trkpt>
      <trkpt lat="48.36357" lon="2.59555">
        <ele>122.71</ele>
        <time>2016-08-21T07:36:50Z</time>
      </trkpt>
      <trkpt lat="48.36363" lon="2.59554">
        <ele>122.71</ele>
        <time>2016-08-21T07:36:55Z</time>
      </trkpt>
      <trkpt lat="48.36376" lon="2.59551">
        <ele>122.71</ele>
        <time>2016-08-21T07:37:06Z</time>
      </trkpt>
      <trkpt lat="48.36392" lon="2.59551">
        <ele>122.71</ele>
        <time>2016-08-21T07:37:23Z</time>
      </trkpt>
      <trkpt lat="48.364" lon="2.59552">
        <ele>122.71</ele>
        <time>2016-08-21T07:37:30Z</time>
      </trkpt>
      <trkpt lat="48.36417" lon="2.59551">
        <ele>122.71</ele>
        <time>2016-08-21T07:37:44Z</time>
      </trkpt>
      <trkpt lat="48.36438" lon="2.59549">
        <ele>122.71</ele>
        <time>2016-08-21T07:37:59Z</time>
      </trkpt>
      <trkpt lat="48.36459" lon="2.59544">
        <ele>122.71</ele>
        <time>2016-08-21T07:38:13Z</time>
      </trkpt>
      <trkpt lat="48.36474" lon="2.59542">
        <ele>123.19</ele>
        <time>2016-08-21T07:38:27Z</time>
      </trkpt>
      <trkpt lat="48.36486" lon="2.59541">
        <ele>123.19</ele>
        <time>2016-08-21T07:38:43Z</time>
      </trkpt>
      <trkpt lat="48.36501" lon="2.59541">
        <ele>122.71</ele>
        <time>2016-08-21T07:38:55Z</time>
      </trkpt>
      <trkpt lat="48.36502" lon="2.59541">
        <ele>122.22</ele>
        <time>2016-08-21T07:38:57Z</time>
      </trkpt>
      <trkpt lat="48.36512" lon="2.59539">
        <ele>121.74</ele>
        <time>2016-08-21T07:39:04Z</time>
      </trkpt>
      <trkpt lat="48.36519" lon="2.59538">
        <ele>121.74</ele>
        <time>2016-08-21T07:39:09Z</time>
      </trkpt>
      <trkpt lat="48.36522" lon="2.59539">
        <ele>121.74</ele>
        <time>2016-08-21T07:39:12Z</time>
      </trkpt>
      <trkpt lat="48.36534" lon="2.59538">
        <ele>120.78</ele>
        <time>2016-08-21T07:39:26Z</time>
      </trkpt>
      <trkpt lat="48.36552" lon="2.59541">
        <ele>120.78</ele>
        <time>2016-08-21T07:39:41Z</time>
      </trkpt>
      <trkpt lat="48.36556" lon="2.5954">
        <ele>120.78</ele>
        <time>2016-08-21T07:39:45Z</time>
      </trkpt>
      <trkpt lat="48.36578" lon="2.59538">
        <ele>120.3</ele>
        <time>2016-08-21T07:40:01Z</time>
      </trkpt>
      <trkpt lat="48.36582" lon="2.59537">
        <ele>119.34</ele>
        <time>2016-08-21T07:40:04Z</time>
      </trkpt>
      <trkpt lat="48.36585" lon="2.59536">
        <ele>119.82</ele>
        <time>2016-08-21T07:40:07Z</time>
      </trkpt>
      <trkpt lat="48.36595" lon="2.59535">
        <ele>118.38</ele>
        <time>2016-08-21T07:40:18Z</time>
      </trkpt>
      <trkpt lat="48.36602" lon="2.59534">
        <ele>118.38</ele>
        <time>2016-08-21T07:40:24Z</time>
      </trkpt>
      <trkpt lat="48.36613" lon="2.59535">
        <ele>118.38</ele>
        <time>2016-08-21T07:40:33Z</time>
      </trkpt>
      <trkpt lat="48.36615" lon="2.59534">
        <ele>118.38</ele>
        <time>2016-08-21T07:40:35Z</time>
      </trkpt>
      <trkpt lat="48.36618" lon="2.59534">
        <ele>118.38</ele>
        <time>2016-08-21T07:40:37Z</time>
      </trkpt>
      <trkpt lat="48.36623" lon="2.59535">
        <ele>117.9</ele>
        <time>2016-08-21T07:40:41Z</time>
      </trkpt>
      <trkpt lat="48.36632" lon="2.59535">
        <ele>117.9</ele>
        <time>2016-08-21T07:40:48Z</time>
      </trkpt>
      <trkpt lat="48.36639" lon="2.59535">
        <ele>118.38</ele>
        <time>2016-08-21T07:40:55Z</time>
      </trkpt>
      <trkpt lat="48.36643" lon="2.59534">
        <ele>118.38</ele>
        <time>2016-08-21T07:40:58Z</time>
      </trkpt>
      <trkpt lat="48.36645" lon="2.59532">
        <ele>118.38</ele>
        <time>2016-08-21T07:41:00Z</time>
      </trkpt>
      <trkpt lat="48.3665" lon="2.59533">
        <ele>118.86</ele>
        <time>2016-08-21T07:41:06Z</time>
      </trkpt>
      <trkpt lat="48.36657" lon="2.59534">
        <ele>117.9</ele>
        <time>2016-08-21T07:41:11Z</time>
      </trkpt>
      <trkpt lat="48.36666" lon="2.59535">
        <ele>117.42</ele>
        <time>2016-08-21T07:41:16Z</time>
      </trkpt>
      <trkpt lat="48.36672" lon="2.59533">
        <ele>117.42</ele>
        <time>2016-08-21T07:41:21Z</time>
      </trkpt>
      <trkpt lat="48.36681" lon="2.59532">
        <ele>117.42</ele>
        <time>2016-08-21T07:41:29Z</time>
      </trkpt>
      <trkpt lat="48.36687" lon="2.59531">
        <ele>116.94</ele>
        <time>2016-08-21T07:41:38Z</time>
      </trkpt>
      <trkpt lat="48.36687" lon="2.59531">
        <ele>116.94</ele>
        <time>2016-08-21T07:41:39Z</time>
      </trkpt>
      <trkpt lat="48.36697" lon="2.59529">
        <ele>116.94</ele>
        <time>2016-08-21T07:41:46Z</time>
      </trkpt>
      <trkpt lat="48.36702" lon="2.59528">
        <ele>116.94</ele>
        <time>2016-08-21T07:41:52Z</time>
      </trkpt>
      <trkpt lat="48.36705" lon="2.59528">
        <ele>116.46</ele>
        <time>2016-08-21T07:41:55Z</time>
      </trkpt>
      <trkpt lat="48.36718" lon="2.59533">
        <ele>116.94</ele>
        <time>2016-08-21T07:42:05Z</time>
      </trkpt>
      <trkpt lat="48.36723" lon="2.59532">
        <ele>117.42</ele>
        <time>2016-08-21T07:42:12Z</time>
      </trkpt>
      <trkpt lat="48.36732" lon="2.5953">
        <ele>119.34</ele>
        <time>2016-08-21T07:42:24Z</time>
      </trkpt>
      <trkpt lat="48.36739" lon="2.59526">
        <ele>120.78</ele>
        <time>2016-08-21T07:42:34Z</time>
      </trkpt>
      <trkpt lat="48.3675" lon="2.5952">
        <ele>122.22</ele>
        <time>2016-08-21T07:42:42Z</time>
      </trkpt>
      <trkpt lat="48.36754" lon="2.5952">
        <ele>122.71</ele>
        <time>2016-08-21T07:42:47Z</time>
      </trkpt>
      <trkpt lat="48.36757" lon="2.59519">
        <ele>122.22</ele>
        <time>2016-08-21T07:42:51Z</time>
      </trkpt>
      <trkpt lat="48.36765" lon="2.59516">
        <ele>122.22</ele>
        <time>2016-08-21T07:42:58Z</time>
      </trkpt>
      <trkpt lat="48.36774" lon="2.59516">
        <ele>122.71</ele>
        <time>2016-08-21T07:43:08Z</time>
      </trkpt>
      <trkpt lat="48.36776" lon="2.59517">
        <ele>122.22</ele>
        <time>2016-08-21T07:43:12Z</time>
      </trkpt>
      <trkpt lat="48.36787" lon="2.59511">
        <ele>120.78</ele>
        <time>2016-08-21T07:43:24Z</time>
      </trkpt>
      <trkpt lat="48.36787" lon="2.59511">
        <ele>120.3</ele>
        <time>2016-08-21T07:43:25Z</time>
      </trkpt>
      <trkpt lat="48.36801" lon="2.59512">
        <ele>120.3</ele>
        <time>2016-08-21T07:43:34Z</time>
      </trkpt>
      <trkpt lat="48.36807" lon="2.59512">
        <ele>119.34</ele>
        <time>2016-08-21T07:43:40Z</time>
      </trkpt>
      <trkpt lat="48.36813" lon="2.59509">
        <ele>119.34</ele>
        <time>2016-08-21T07:43:46Z</time>
      </trkpt>
      <trkpt lat="48.36819" lon="2.59508">
        <ele>119.82</ele>
        <time>2016-08-21T07:43:51Z</time>
      </trkpt>
      <trkpt lat="48.36825" lon="2.59508">
        <ele>118.86</ele>
        <time>2016-08-21T07:43:56Z</time>
      </trkpt>
      <trkpt lat="48.36829" lon="2.59507">
        <ele>119.34</ele>
        <time>2016-08-21T07:44:00Z</time>
      </trkpt>
      <trkpt lat="48.36839" lon="2.59503">
        <ele>120.3</ele>
        <time>2016-08-21T07:44:12Z</time>
      </trkpt>
      <trkpt lat="48.3685" lon="2.59509">
        <ele>121.74</ele>
        <time>2016-08-21T07:44:24Z</time>
      </trkpt>
      <trkpt lat="48.36853" lon="2.5951">
        <ele>122.71</ele>
        <time>2016-08-21T07:44:29Z</time>
      </trkpt>
      <trkpt lat="48.36867" lon="2.59512">
        <ele>124.15</ele>
        <time>2016-08-21T07:44:44Z</time>
      </trkpt>
      <trkpt lat="48.36875" lon="2.5951">
        <ele>125.11</ele>
        <time>2016-08-21T07:44:51Z</time>
      </trkpt>
      <trkpt lat="48.36888" lon="2.59504">
        <ele>124.63</ele>
        <time>2016-08-21T07:45:04Z</time>
      </trkpt>
      <trkpt lat="48.36892" lon="2.59495">
        <ele>124.63</ele>
        <time>2016-08-21T07:45:12Z</time>
      </trkpt>
      <trkpt lat="48.36899" lon="2.59477">
        <ele>125.11</ele>
        <time>2016-08-21T07:45:24Z</time>
      </trkpt>
      <trkpt lat="48.36904" lon="2.59462">
        <ele>125.11</ele>
        <time>2016-08-21T07:45:34Z</time>
      </trkpt>
      <trkpt lat="48.36916" lon="2.59451">
        <ele>125.11</ele>
        <time>2016-08-21T07:45:46Z</time>
      </trkpt>
      <trkpt lat="48.36923" lon="2.59443">
        <ele>124.15</ele>
        <time>2016-08-21T07:45:55Z</time>
      </trkpt>
      <trkpt lat="48.36926" lon="2.59445">
        <ele>124.63</ele>
        <time>2016-08-21T07:45:58Z</time>
      </trkpt>
      <trkpt lat="48.36931" lon="2.59451">
        <ele>124.15</ele>
        <time>2016-08-21T07:46:12Z</time>
      </trkpt>
      <trkpt lat="48.36932" lon="2.59451">
        <ele>124.15</ele>
        <time>2016-08-21T07:46:36Z</time>
      </trkpt>
      <trkpt lat="48.36932" lon="2.59453">
        <ele>124.15</ele>
        <time>2016-08-21T07:46:57Z</time>
      </trkpt>
      <trkpt lat="48.36937" lon="2.5945">
        <ele>123.67</ele>
        <time>2016-08-21T07:47:13Z</time>
      </trkpt>
      <trkpt lat="48.36937" lon="2.59448">
        <ele>122.71</ele>
        <time>2016-08-21T07:47:31Z</time>
      </trkpt>
      <trkpt lat="48.36938" lon="2.59439">
        <ele>120.3</ele>
        <time>2016-08-21T07:47:44Z</time>
      </trkpt>
      <trkpt lat="48.36942" lon="2.59437">
        <ele>119.34</ele>
        <time>2016-08-21T07:47:49Z</time>
      </trkpt>
      <trkpt lat="48.3695" lon="2.59435">
        <ele>117.9</ele>
        <time>2016-08-21T07:47:59Z</time>
      </trkpt>
      <trkpt lat="48.36959" lon="2.59429">
        <ele>116.94</ele>
        <time>2016-08-21T07:48:11Z</time>
      </trkpt>
      <trkpt lat="48.36962" lon="2.59427">
        <ele>116.46</ele>
        <time>2016-08-21T07:48:13Z</time>
      </trkpt>
      <trkpt lat="48.36976" lon="2.59428">
        <ele>116.46</ele>
        <time>2016-08-21T07:48:26Z</time>
      </trkpt>
      <trkpt lat="48.36984" lon="2.5942">
        <ele>116.94</ele>
        <time>2016-08-21T07:48:41Z</time>
      </trkpt>
      <trkpt lat="48.3699" lon="2.59409">
        <ele>117.9</ele>
        <time>2016-08-21T07:48:53Z</time>
      </trkpt>
      <trkpt lat="48.36993" lon="2.59402">
        <ele>118.86</ele>
        <time>2016-08-21T07:49:05Z</time>
      </trkpt>
      <trkpt lat="48.36996" lon="2.59398">
        <ele>119.82</ele>
        <time>2016-08-21T07:49:09Z</time>
      </trkpt>
      <trkpt lat="48.37001" lon="2.59388">
        <ele>121.74</ele>
        <time>2016-08-21T07:49:20Z</time>
      </trkpt>
      <trkpt lat="48.37002" lon="2.59379">
        <ele>123.67</ele>
        <time>2016-08-21T07:49:31Z</time>
      </trkpt>
      <trkpt lat="48.37" lon="2.59363">
        <ele>123.67</ele>
        <time>2016-08-21T07:49:42Z</time>
      </trkpt>
      <trkpt lat="48.36993" lon="2.59356">
        <ele>125.11</ele>
        <time>2016-08-21T07:49:51Z</time>
      </trkpt>
      <trkpt lat="48.36989" lon="2.59345">
        <ele>124.63</ele>
        <time>2016-08-21T07:50:01Z</time>
      </trkpt>
      <trkpt lat="48.36988" lon="2.59337">
        <ele>125.11</ele>
        <time>2016-08-21T07:50:06Z</time>
      </trkpt>
      <trkpt lat="48.36989" lon="2.59332">
        <ele>124.63</ele>
        <time>2016-08-21T07:50:10Z</time>
      </trkpt>
      <trkpt lat="48.36997" lon="2.59314">
        <ele>123.19</ele>
        <time>2016-08-21T07:50:21Z</time>
      </trkpt>
      <trkpt lat="48.36998" lon="2.593">
        <ele>122.71</ele>
        <time>2016-08-21T07:50:31Z</time>
      </trkpt>
      <trkpt lat="48.36987" lon="2.59285">
        <ele>121.26</ele>
        <time>2016-08-21T07:50:45Z</time>
      </trkpt>
      <trkpt lat="48.36983" lon="2.59274">
        <ele>119.82</ele>
        <time>2016-08-21T07:50:58Z</time>
      </trkpt>
      <trkpt lat="48.36989" lon="2.5926">
        <ele>118.38</ele>
        <time>2016-08-21T07:51:10Z</time>
      </trkpt>
      <trkpt lat="48.36989" lon="2.59258">
        <ele>118.86</ele>
        <time>2016-08-21T07:51:11Z</time>
      </trkpt>
      <trkpt lat="48.36985" lon="2.59246">
        <ele>117.9</ele>
        <time>2016-08-21T07:51:19Z</time>
      </trkpt>
      <trkpt lat="48.36978" lon="2.59227">
        <ele>116.94</ele>
        <time>2016-08-21T07:51:31Z</time>
      </trkpt>
      <trkpt lat="48.36974" lon="2.59213">
        <ele>115.5</ele>
        <time>2016-08-21T07:51:40Z</time>
      </trkpt>
      <trkpt lat="48.36971" lon="2.59204">
        <ele>115.5</ele>
        <time>2016-08-21T07:51:46Z</time>
      </trkpt>
      <trkpt lat="48.36967" lon="2.59187">
        <ele>115.98</ele>
        <time>2016-08-21T07:52:01Z</time>
      </trkpt>
      <trkpt lat="48.36967" lon="2.59186">
        <ele>115.5</ele>
        <time>2016-08-21T07:52:21Z</time>
      </trkpt>
      <trkpt lat="48.36966" lon="2.59186">
        <ele>115.5</ele>
        <time>2016-08-21T07:52:36Z</time>
      </trkpt>
      <trkpt lat="48.3697" lon="2.59188">
        <ele>115.98</ele>
        <time>2016-08-21T07:53:00Z</time>
      </trkpt>
      <trkpt lat="48.3697" lon="2.59188">
        <ele>115.98</ele>
        <time>2016-08-21T07:53:28Z</time>
      </trkpt>
      <trkpt lat="48.36969" lon="2.59189">
        <ele>115.98</ele>
        <time>2016-08-21T07:54:03Z</time>
      </trkpt>
      <trkpt lat="48.3697" lon="2.59189">
        <ele>115.98</ele>
        <time>2016-08-21T07:54:35Z</time>
      </trkpt>
      <trkpt lat="48.3697" lon="2.59187">
        <ele>115.98</ele>
        <time>2016-08-21T07:55:05Z</time>
      </trkpt>
      <trkpt lat="48.36969" lon="2.59187">
        <ele>115.98</ele>
        <time>2016-08-21T07:55:42Z</time>
      </trkpt>
      <trkpt lat="48.36968" lon="2.59188">
        <ele>116.46</ele>
        <time>2016-08-21T07:56:13Z</time>
      </trkpt>
      <trkpt lat="48.36968" lon="2.59188">
        <ele>115.98</ele>
        <time>2016-08-21T07:56:44Z</time>
      </trkpt>
      <trkpt lat="48.36969" lon="2.59189">
        <ele>115.98</ele>
        <time>2016-08-21T07:57:15Z</time>
      </trkpt>
      <trkpt lat="48.36968" lon="2.59189">
        <ele>116.46</ele>
        <time>2016-08-21T07:57:48Z</time>
      </trkpt>
      <trkpt lat="48.36968" lon="2.59188">
        <ele>115.98</ele>
        <time>2016-08-21T07:58:20Z</time>
      </trkpt>
      <trkpt lat="48.36968" lon="2.59189">
        <ele>115.5</ele>
        <time>2016-08-21T07:58:51Z</time>
      </trkpt>
      <trkpt lat="48.36967" lon="2.5919">
        <ele>115.5</ele>
        <time>2016-08-21T07:59:22Z</time>
      </trkpt>
      <trkpt lat="48.36967" lon="2.59188">
        <ele>115.5</ele>
        <time>2016-08-21T07:59:53Z</time>
      </trkpt>
      <trkpt lat="48.36967" lon="2.59186">
        <ele>115.5</ele>
        <time>2016-08-21T08:00:22Z</time>
      </trkpt>
      <trkpt lat="48.36968" lon="2.59188">
        <ele>115.5</ele>
        <time>2016-08-21T08:00:55Z</time>
      </trkpt>
      <trkpt lat="48.36967" lon="2.59188">
        <ele>115.98</ele>
        <time>2016-08-21T08:01:25Z</time>
      </trkpt>
      <trkpt lat="48.36967" lon="2.59187">
        <ele>115.98</ele>
        <time>2016-08-21T08:01:41Z</time>
      </trkpt>
      <trkpt lat="48.36967" lon="2.59186">
        <ele>115.5</ele>
        <time>2016-08-21T08:02:05Z</time>
      </trkpt>
      <trkpt lat="48.36969" lon="2.59181">
        <ele>116.46</ele>
        <time>2016-08-21T08:02:22Z</time>
      </trkpt>
      <trkpt lat="48.36969" lon="2.59181">
        <ele>116.46</ele>
        <time>2016-08-21T08:02:24Z</time>
      </trkpt>
      <trkpt lat="48.36966" lon="2.59172">
        <ele>116.94</ele>
        <time>2016-08-21T08:02:36Z</time>
      </trkpt>
      <trkpt lat="48.3696" lon="2.59168">
        <ele>117.9</ele>
        <time>2016-08-21T08:02:49Z</time>
      </trkpt>
      <trkpt lat="48.36956" lon="2.59165">
        <ele>118.86</ele>
        <time>2016-08-21T08:02:59Z</time>
      </trkpt>
      <trkpt lat="48.36951" lon="2.59159">
        <ele>118.38</ele>
        <time>2016-08-21T08:03:11Z</time>
      </trkpt>
      <trkpt lat="48.36945" lon="2.59159">
        <ele>116.46</ele>
        <time>2016-08-21T08:03:22Z</time>
      </trkpt>
      <trkpt lat="48.36942" lon="2.59157">
        <ele>115.5</ele>
        <time>2016-08-21T08:03:33Z</time>
      </trkpt>
      <trkpt lat="48.36936" lon="2.59165">
        <ele>114.05</ele>
        <time>2016-08-21T08:03:48Z</time>
      </trkpt>
      <trkpt lat="48.36932" lon="2.59181">
        <ele>113.57</ele>
        <time>2016-08-21T08:04:00Z</time>
      </trkpt>
      <trkpt lat="48.36929" lon="2.5919">
        <ele>113.09</ele>
        <time>2016-08-21T08:04:08Z</time>
      </trkpt>
      <trkpt lat="48.36921" lon="2.59192">
        <ele>113.57</ele>
        <time>2016-08-21T08:04:22Z</time>
      </trkpt>
      <trkpt lat="48.36909" lon="2.59185">
        <ele>112.61</ele>
        <time>2016-08-21T08:04:35Z</time>
      </trkpt>
      <trkpt lat="48.36906" lon="2.59184">
        <ele>112.61</ele>
        <time>2016-08-21T08:04:38Z</time>
      </trkpt>
      <trkpt lat="48.36895" lon="2.59175">
        <ele>112.13</ele>
        <time>2016-08-21T08:04:55Z</time>
      </trkpt>
      <trkpt lat="48.36895" lon="2.59172">
        <ele>112.13</ele>
        <time>2016-08-21T08:04:58Z</time>
      </trkpt>
      <trkpt lat="48.36898" lon="2.59164">
        <ele>112.61</ele>
        <time>2016-08-21T08:05:07Z</time>
      </trkpt>
      <trkpt lat="48.3691" lon="2.59148">
        <ele>113.09</ele>
        <time>2016-08-21T08:05:22Z</time>
      </trkpt>
      <trkpt lat="48.36916" lon="2.59141">
        <ele>113.57</ele>
        <time>2016-08-21T08:05:30Z</time>
      </trkpt>
      <trkpt lat="48.36921" lon="2.59136">
        <ele>113.09</ele>
        <time>2016-08-21T08:05:35Z</time>
      </trkpt>
      <trkpt lat="48.3693" lon="2.59126">
        <ele>113.09</ele>
        <time>2016-08-21T08:05:45Z</time>
      </trkpt>
      <trkpt lat="48.36938" lon="2.59114">
        <ele>113.09</ele>
        <time>2016-08-21T08:05:56Z</time>
      </trkpt>
      <trkpt lat="48.36944" lon="2.5911">
        <ele>113.57</ele>
        <time>2016-08-21T08:06:02Z</time>
      </trkpt>
      <trkpt lat="48.36955" lon="2.59098">
        <ele>114.05</ele>
        <time>2016-08-21T08:06:16Z</time>
      </trkpt>
      <trkpt lat="48.36966" lon="2.59088">
        <ele>114.05</ele>
        <time>2016-08-21T08:06:28Z</time>
      </trkpt>
      <trkpt lat="48.36975" lon="2.59078">
        <ele>114.05</ele>
        <time>2016-08-21T08:06:40Z</time>
      </trkpt>
      <trkpt lat="48.3698" lon="2.59073">
        <ele>115.01</ele>
        <time>2016-08-21T08:06:45Z</time>
      </trkpt>
      <trkpt lat="48.36989" lon="2.59064">
        <ele>115.5</ele>
        <time>2016-08-21T08:06:54Z</time>
      </trkpt>
      <trkpt lat="48.36991" lon="2.59055">
        <ele>115.5</ele>
        <time>2016-08-21T08:07:01Z</time>
      </trkpt>
      <trkpt lat="48.36994" lon="2.59047">
        <ele>115.5</ele>
        <time>2016-08-21T08:07:14Z</time>
      </trkpt>
      <trkpt lat="48.36996" lon="2.59036">
        <ele>115.01</ele>
        <time>2016-08-21T08:07:24Z</time>
      </trkpt>
      <trkpt lat="48.36994" lon="2.59014">
        <ele>115.98</ele>
        <time>2016-08-21T08:07:38Z</time>
      </trkpt>
      <trkpt lat="48.36993" lon="2.59002">
        <ele>115.98</ele>
        <time>2016-08-21T08:07:47Z</time>
      </trkpt>
      <trkpt lat="48.36994" lon="2.58984">
        <ele>115.5</ele>
        <time>2016-08-21T08:08:01Z</time>
      </trkpt>
      <trkpt lat="48.36995" lon="2.58984">
        <ele>115.01</ele>
        <time>2016-08-21T08:08:19Z</time>
      </trkpt>
      <trkpt lat="48.36996" lon="2.58983">
        <ele>115.01</ele>
        <time>2016-08-21T08:08:40Z</time>
      </trkpt>
      <trkpt lat="48.36997" lon="2.5898">
        <ele>115.5</ele>
        <time>2016-08-21T08:09:04Z</time>
      </trkpt>
      <trkpt lat="48.36995" lon="2.58956">
        <ele>115.5</ele>
        <time>2016-08-21T08:09:19Z</time>
      </trkpt>
      <trkpt lat="48.36998" lon="2.5895">
        <ele>116.94</ele>
        <time>2016-08-21T08:09:31Z</time>
      </trkpt>
      <trkpt lat="48.37" lon="2.58949">
        <ele>117.42</ele>
        <time>2016-08-21T08:09:33Z</time>
      </trkpt>
      <trkpt lat="48.37009" lon="2.58964">
        <ele>116.94</ele>
        <time>2016-08-21T08:09:47Z</time>
      </trkpt>
      <trkpt lat="48.37009" lon="2.58963">
        <ele>117.42</ele>
        <time>2016-08-21T08:09:59Z</time>
      </trkpt>
      <trkpt lat="48.37008" lon="2.58963">
        <ele>117.9</ele>
        <time>2016-08-21T08:10:00Z</time>
      </trkpt>
      <trkpt lat="48.37003" lon="2.58952">
        <ele>117.42</ele>
        <time>2016-08-21T08:10:08Z</time>
      </trkpt>
      <trkpt lat="48.37003" lon="2.58953">
        <ele>115.98</ele>
        <time>2016-08-21T08:10:10Z</time>
      </trkpt>
      <trkpt lat="48.36998" lon="2.58946">
        <ele>115.01</ele>
        <time>2016-08-21T08:10:17Z</time>
      </trkpt>
      <trkpt lat="48.36999" lon="2.58919">
        <ele>114.53</ele>
        <time>2016-08-21T08:10:34Z</time>
      </trkpt>
      <trkpt lat="48.37" lon="2.58918">
        <ele>114.53</ele>
        <time>2016-08-21T08:10:35Z</time>
      </trkpt>
      <trkpt lat="48.36999" lon="2.58909">
        <ele>114.53</ele>
        <time>2016-08-21T08:10:40Z</time>
      </trkpt>
      <trkpt lat="48.37001" lon="2.58885">
        <ele>114.05</ele>
        <time>2016-08-21T08:10:54Z</time>
      </trkpt>
      <trkpt lat="48.37002" lon="2.58863">
        <ele>113.57</ele>
        <time>2016-08-21T08:11:08Z</time>
      </trkpt>
      <trkpt lat="48.37003" lon="2.58832">
        <ele>113.57</ele>
        <time>2016-08-21T08:11:24Z</time>
      </trkpt>
      <trkpt lat="48.37002" lon="2.58814">
        <ele>113.09</ele>
        <time>2016-08-21T08:11:37Z</time>
      </trkpt>
      <trkpt lat="48.37003" lon="2.58805">
        <ele>113.57</ele>
        <time>2016-08-21T08:11:42Z</time>
      </trkpt>
      <trkpt lat="48.37002" lon="2.58798">
        <ele>112.61</ele>
        <time>2016-08-21T08:11:45Z</time>
      </trkpt>
      <trkpt lat="48.36997" lon="2.58786">
        <ele>112.61</ele>
        <time>2016-08-21T08:11:52Z</time>
      </trkpt>
      <trkpt lat="48.36997" lon="2.58777">
        <ele>113.09</ele>
        <time>2016-08-21T08:11:59Z</time>
      </trkpt>
      <trkpt lat="48.36999" lon="2.58765">
        <ele>112.61</ele>
        <time>2016-08-21T08:12:05Z</time>
      </trkpt>
      <trkpt lat="48.36999" lon="2.58754">
        <ele>112.61</ele>
        <time>2016-08-21T08:12:11Z</time>
      </trkpt>
      <trkpt lat="48.36998" lon="2.58744">
        <ele>113.09</ele>
        <time>2016-08-21T08:12:18Z</time>
      </trkpt>
      <trkpt lat="48.36995" lon="2.58728">
        <ele>112.61</ele>
        <time>2016-08-21T08:12:28Z</time>
      </trkpt>
      <trkpt lat="48.36996" lon="2.58716">
        <ele>113.09</ele>
        <time>2016-08-21T08:12:33Z</time>
      </trkpt>
      <trkpt lat="48.36997" lon="2.58705">
        <ele>113.09</ele>
        <time>2016-08-21T08:12:39Z</time>
      </trkpt>
      <trkpt lat="48.36996" lon="2.58696">
        <ele>112.61</ele>
        <time>2016-08-21T08:12:45Z</time>
      </trkpt>
      <trkpt lat="48.36997" lon="2.5868">
        <ele>112.61</ele>
        <time>2016-08-21T08:12:55Z</time>
      </trkpt>
      <trkpt lat="48.36998" lon="2.58667">
        <ele>112.61</ele>
        <time>2016-08-21T08:13:01Z</time>
      </trkpt>
      <trkpt lat="48.36998" lon="2.58665">
        <ele>113.09</ele>
        <time>2016-08-21T08:13:03Z</time>
      </trkpt>
      <trkpt lat="48.36997" lon="2.58656">
        <ele>112.61</ele>
        <time>2016-08-21T08:13:08Z</time>
      </trkpt>
      <trkpt lat="48.36996" lon="2.58646">
        <ele>112.61</ele>
        <time>2016-08-21T08:13:15Z</time>
      </trkpt>
      <trkpt lat="48.36995" lon="2.58636">
        <ele>112.13</ele>
        <time>2016-08-21T08:13:20Z</time>
      </trkpt>
      <trkpt lat="48.36994" lon="2.58626">
        <ele>111.65</ele>
        <time>2016-08-21T08:13:24Z</time>
      </trkpt>
      <trkpt lat="48.36992" lon="2.58611">
        <ele>112.13</ele>
        <time>2016-08-21T08:13:33Z</time>
      </trkpt>
      <trkpt lat="48.36995" lon="2.58603">
        <ele>111.65</ele>
        <time>2016-08-21T08:13:38Z</time>
      </trkpt>
      <trkpt lat="48.36996" lon="2.58595">
        <ele>111.65</ele>
        <time>2016-08-21T08:13:43Z</time>
      </trkpt>
      <trkpt lat="48.37" lon="2.58571">
        <ele>111.65</ele>
        <time>2016-08-21T08:13:58Z</time>
      </trkpt>
      <trkpt lat="48.36997" lon="2.58546">
        <ele>111.17</ele>
        <time>2016-08-21T08:14:13Z</time>
      </trkpt>
      <trkpt lat="48.36989" lon="2.58535">
        <ele>110.69</ele>
        <time>2016-08-21T08:14:23Z</time>
      </trkpt>
      <trkpt lat="48.36987" lon="2.58533">
        <ele>111.65</ele>
        <time>2016-08-21T08:14:27Z</time>
      </trkpt>
      <trkpt lat="48.36979" lon="2.58523">
        <ele>111.65</ele>
        <time>2016-08-21T08:14:37Z</time>
      </trkpt>
      <trkpt lat="48.36985" lon="2.58504">
        <ele>111.17</ele>
        <time>2016-08-21T08:14:50Z</time>
      </trkpt>
      <trkpt lat="48.36985" lon="2.58502">
        <ele>111.17</ele>
        <time>2016-08-21T08:14:54Z</time>
      </trkpt>
      <trkpt lat="48.36992" lon="2.58483">
        <ele>111.65</ele>
        <time>2016-08-21T08:15:05Z</time>
      </trkpt>
      <trkpt lat="48.36994" lon="2.58478">
        <ele>111.65</ele>
        <time>2016-08-21T08:15:08Z</time>
      </trkpt>
      <trkpt lat="48.37" lon="2.58471">
        <ele>112.13</ele>
        <time>2016-08-21T08:15:15Z</time>
      </trkpt>
      <trkpt lat="48.37005" lon="2.58462">
        <ele>111.17</ele>
        <time>2016-08-21T08:15:26Z</time>
      </trkpt>
      <trkpt lat="48.37009" lon="2.58458">
        <ele>111.17</ele>
        <time>2016-08-21T08:15:36Z</time>
      </trkpt>
      <trkpt lat="48.37008" lon="2.58434">
        <ele>112.13</ele>
        <time>2016-08-21T08:15:45Z</time>
      </trkpt>
      <trkpt lat="48.37007" lon="2.58424">
        <ele>112.13</ele>
        <time>2016-08-21T08:15:49Z</time>
      </trkpt>
      <trkpt lat="48.37007" lon="2.58407">
        <ele>112.13</ele>
        <time>2016-08-21T08:16:03Z</time>
      </trkpt>
      <trkpt lat="48.37002" lon="2.58393">
        <ele>113.09</ele>
        <time>2016-08-21T08:16:17Z</time>
      </trkpt>
      <trkpt lat="48.36992" lon="2.58374">
        <ele>113.57</ele>
        <time>2016-08-21T08:16:30Z</time>
      </trkpt>
      <trkpt lat="48.36991" lon="2.58369">
        <ele>113.09</ele>
        <time>2016-08-21T08:16:33Z</time>
      </trkpt>
      <trkpt lat="48.36989" lon="2.58363">
        <ele>113.09</ele>
        <time>2016-08-21T08:16:37Z</time>
      </trkpt>
      <trkpt lat="48.36981" lon="2.58349">
        <ele>114.05</ele>
        <time>2016-08-21T08:16:49Z</time>
      </trkpt>
      <trkpt lat="48.36975" lon="2.58339">
        <ele>114.53</ele>
        <time>2016-08-21T08:16:59Z</time>
      </trkpt>
      <trkpt lat="48.36968" lon="2.58336">
        <ele>115.98</ele>
        <time>2016-08-21T08:17:13Z</time>
      </trkpt>
      <trkpt lat="48.36966" lon="2.58335">
        <ele>115.98</ele>
        <time>2016-08-21T08:17:25Z</time>
      </trkpt>
      <trkpt lat="48.36954" lon="2.58328">
        <ele>118.86</ele>
        <time>2016-08-21T08:17:38Z</time>
      </trkpt>
      <trkpt lat="48.36951" lon="2.58318">
        <ele>120.78</ele>
        <time>2016-08-21T08:17:48Z</time>
      </trkpt>
      <trkpt lat="48.36948" lon="2.58316">
        <ele>121.74</ele>
        <time>2016-08-21T08:17:55Z</time>
      </trkpt>
      <trkpt lat="48.36942" lon="2.58311">
        <ele>122.71</ele>
        <time>2016-08-21T08:18:01Z</time>
      </trkpt>
      <trkpt lat="48.36942" lon="2.58305">
        <ele>122.71</ele>
        <time>2016-08-21T08:18:05Z</time>
      </trkpt>
      <trkpt lat="48.3694" lon="2.58288">
        <ele>121.26</ele>
        <time>2016-08-21T08:18:18Z</time>
      </trkpt>
      <trkpt lat="48.3694" lon="2.58271">
        <ele>117.9</ele>
        <time>2016-08-21T08:18:32Z</time>
      </trkpt>
      <trkpt lat="48.36939" lon="2.5826">
        <ele>116.94</ele>
        <time>2016-08-21T08:18:45Z</time>
      </trkpt>
      <trkpt lat="48.3694" lon="2.58257">
        <ele>115.01</ele>
        <time>2016-08-21T08:19:01Z</time>
      </trkpt>
      <trkpt lat="48.36942" lon="2.58241">
        <ele>113.57</ele>
        <time>2016-08-21T08:19:13Z</time>
      </trkpt>
      <trkpt lat="48.36943" lon="2.58234">
        <ele>113.09</ele>
        <time>2016-08-21T08:19:27Z</time>
      </trkpt>
      <trkpt lat="48.3694" lon="2.58232">
        <ele>112.61</ele>
        <time>2016-08-21T08:19:35Z</time>
      </trkpt>
      <trkpt lat="48.36929" lon="2.58221">
        <ele>113.09</ele>
        <time>2016-08-21T08:19:46Z</time>
      </trkpt>
      <trkpt lat="48.36917" lon="2.58206">
        <ele>112.61</ele>
        <time>2016-08-21T08:19:56Z</time>
      </trkpt>
      <trkpt lat="48.3691" lon="2.58181">
        <ele>112.13</ele>
        <time>2016-08-21T08:20:09Z</time>
      </trkpt>
      <trkpt lat="48.36908" lon="2.58174">
        <ele>112.13</ele>
        <time>2016-08-21T08:20:13Z</time>
      </trkpt>
      <trkpt lat="48.36908" lon="2.58158">
        <ele>112.13</ele>
        <time>2016-08-21T08:20:24Z</time>
      </trkpt>
      <trkpt lat="48.36914" lon="2.58141">
        <ele>112.13</ele>
        <time>2016-08-21T08:20:34Z</time>
      </trkpt>
      <trkpt lat="48.36922" lon="2.58125">
        <ele>112.13</ele>
        <time>2016-08-21T08:20:46Z</time>
      </trkpt>
      <trkpt lat="48.36925" lon="2.58122">
        <ele>112.13</ele>
        <time>2016-08-21T08:20:49Z</time>
      </trkpt>
      <trkpt lat="48.36931" lon="2.58109">
        <ele>112.61</ele>
        <time>2016-08-21T08:20:59Z</time>
      </trkpt>
      <trkpt lat="48.36936" lon="2.58099">
        <ele>112.61</ele>
        <time>2016-08-21T08:21:07Z</time>
      </trkpt>
      <trkpt lat="48.36937" lon="2.58087">
        <ele>112.61</ele>
        <time>2016-08-21T08:21:16Z</time>
      </trkpt>
      <trkpt lat="48.36937" lon="2.58081">
        <ele>112.61</ele>
        <time>2016-08-21T08:21:20Z</time>
      </trkpt>
      <trkpt lat="48.36939" lon="2.58059">
        <ele>111.65</ele>
        <time>2016-08-21T08:21:31Z</time>
      </trkpt>
      <trkpt lat="48.36938" lon="2.58053">
        <ele>112.13</ele>
        <time>2016-08-21T08:21:34Z</time>
      </trkpt>
      <trkpt lat="48.36937" lon="2.58042">
        <ele>111.65</ele>
        <time>2016-08-21T08:21:40Z</time>
      </trkpt>
      <trkpt lat="48.36938" lon="2.58033">
        <ele>111.17</ele>
        <time>2016-08-21T08:21:44Z</time>
      </trkpt>
      <trkpt lat="48.36943" lon="2.58024">
        <ele>111.17</ele>
        <time>2016-08-21T08:21:50Z</time>
      </trkpt>
      <trkpt lat="48.36949" lon="2.58026">
        <ele>111.65</ele>
        <time>2016-08-21T08:21:59Z</time>
      </trkpt>
      <trkpt lat="48.36954" lon="2.58029">
        <ele>111.17</ele>
        <time>2016-08-21T08:22:04Z</time>
      </trkpt>
      <trkpt lat="48.3696" lon="2.58032">
        <ele>110.69</ele>
        <time>2016-08-21T08:22:11Z</time>
      </trkpt>
      <trkpt lat="48.36964" lon="2.58034">
        <ele>110.69</ele>
        <time>2016-08-21T08:22:16Z</time>
      </trkpt>
      <trkpt lat="48.36973" lon="2.58038">
        <ele>110.69</ele>
        <time>2016-08-21T08:22:28Z</time>
      </trkpt>
      <trkpt lat="48.36975" lon="2.5804">
        <ele>110.69</ele>
        <time>2016-08-21T08:22:30Z</time>
      </trkpt>
      <trkpt lat="48.36979" lon="2.58042">
        <ele>110.69</ele>
        <time>2016-08-21T08:22:34Z</time>
      </trkpt>
      <trkpt lat="48.36996" lon="2.58065">
        <ele>111.65</ele>
        <time>2016-08-21T08:22:47Z</time>
      </trkpt>
      <trkpt lat="48.36998" lon="2.58069">
        <ele>111.17</ele>
        <time>2016-08-21T08:22:49Z</time>
      </trkpt>
      <trkpt lat="48.37005" lon="2.58074">
        <ele>111.17</ele>
        <time>2016-08-21T08:22:54Z</time>
      </trkpt>
      <trkpt lat="48.37007" lon="2.58078">
        <ele>111.65</ele>
        <time>2016-08-21T08:22:58Z</time>
      </trkpt>
      <trkpt lat="48.3701" lon="2.58095">
        <ele>111.65</ele>
        <time>2016-08-21T08:23:12Z</time>
      </trkpt>
      <trkpt lat="48.37012" lon="2.58099">
        <ele>111.17</ele>
        <time>2016-08-21T08:23:16Z</time>
      </trkpt>
      <trkpt lat="48.37025" lon="2.58112">
        <ele>111.65</ele>
        <time>2016-08-21T08:23:27Z</time>
      </trkpt>
      <trkpt lat="48.37043" lon="2.58117">
        <ele>112.13</ele>
        <time>2016-08-21T08:23:41Z</time>
      </trkpt>
      <trkpt lat="48.37059" lon="2.5812">
        <ele>112.13</ele>
        <time>2016-08-21T08:23:56Z</time>
      </trkpt>
      <trkpt lat="48.3707" lon="2.58116">
        <ele>112.61</ele>
        <time>2016-08-21T08:24:08Z</time>
      </trkpt>
      <trkpt lat="48.37088" lon="2.58118">
        <ele>112.13</ele>
        <time>2016-08-21T08:24:25Z</time>
      </trkpt>
      <trkpt lat="48.37096" lon="2.58121">
        <ele>112.61</ele>
        <time>2016-08-21T08:24:36Z</time>
      </trkpt>
      <trkpt lat="48.37099" lon="2.58122">
        <ele>112.61</ele>
        <time>2016-08-21T08:24:38Z</time>
      </trkpt>
      <trkpt lat="48.37108" lon="2.58126">
        <ele>112.13</ele>
        <time>2016-08-21T08:24:44Z</time>
      </trkpt>
      <trkpt lat="48.37116" lon="2.58129">
        <ele>112.13</ele>
        <time>2016-08-21T08:24:49Z</time>
      </trkpt>
      <trkpt lat="48.37122" lon="2.58132">
        <ele>111.65</ele>
        <time>2016-08-21T08:24:53Z</time>
      </trkpt>
      <trkpt lat="48.37126" lon="2.58137">
        <ele>111.65</ele>
        <time>2016-08-21T08:24:59Z</time>
      </trkpt>
      <trkpt lat="48.3713" lon="2.5814">
        <ele>111.65</ele>
        <time>2016-08-21T08:25:02Z</time>
      </trkpt>
      <trkpt lat="48.37134" lon="2.58142">
        <ele>111.65</ele>
        <time>2016-08-21T08:25:07Z</time>
      </trkpt>
      <trkpt lat="48.37147" lon="2.58151">
        <ele>111.17</ele>
        <time>2016-08-21T08:25:22Z</time>
      </trkpt>
      <trkpt lat="48.37163" lon="2.58161">
        <ele>111.65</ele>
        <time>2016-08-21T08:25:38Z</time>
      </trkpt>
      <trkpt lat="48.37169" lon="2.58165">
        <ele>112.13</ele>
        <time>2016-08-21T08:25:52Z</time>
      </trkpt>
      <trkpt lat="48.37172" lon="2.58167">
        <ele>112.13</ele>
        <time>2016-08-21T08:26:13Z</time>
      </trkpt>
      <trkpt lat="48.37192" lon="2.58175">
        <ele>112.13</ele>
        <time>2016-08-21T08:26:30Z</time>
      </trkpt>
      <trkpt lat="48.37197" lon="2.5818">
        <ele>112.61</ele>
        <time>2016-08-21T08:26:36Z</time>
      </trkpt>
      <trkpt lat="48.37208" lon="2.58187">
        <ele>112.13</ele>
        <time>2016-08-21T08:26:44Z</time>
      </trkpt>
      <trkpt lat="48.37224" lon="2.58196">
        <ele>111.65</ele>
        <time>2016-08-21T08:26:58Z</time>
      </trkpt>
      <trkpt lat="48.37235" lon="2.58192">
        <ele>111.65</ele>
        <time>2016-08-21T08:27:12Z</time>
      </trkpt>
      <trkpt lat="48.37243" lon="2.58168">
        <ele>111.65</ele>
        <time>2016-08-21T08:27:27Z</time>
      </trkpt>
      <trkpt lat="48.37244" lon="2.58155">
        <ele>112.13</ele>
        <time>2016-08-21T08:27:36Z</time>
      </trkpt>
      <trkpt lat="48.37245" lon="2.58134">
        <ele>112.61</ele>
        <time>2016-08-21T08:27:49Z</time>
      </trkpt>
      <trkpt lat="48.37249" lon="2.58109">
        <ele>112.61</ele>
        <time>2016-08-21T08:28:06Z</time>
      </trkpt>
      <trkpt lat="48.3725" lon="2.58096">
        <ele>112.13</ele>
        <time>2016-08-21T08:28:22Z</time>
      </trkpt>
      <trkpt lat="48.3725" lon="2.58094">
        <ele>112.61</ele>
        <time>2016-08-21T08:28:23Z</time>
      </trkpt>
      <trkpt lat="48.37251" lon="2.58066">
        <ele>112.61</ele>
        <time>2016-08-21T08:28:40Z</time>
      </trkpt>
      <trkpt lat="48.37253" lon="2.58041">
        <ele>112.13</ele>
        <time>2016-08-21T08:28:55Z</time>
      </trkpt>
      <trkpt lat="48.37255" lon="2.58028">
        <ele>112.13</ele>
        <time>2016-08-21T08:29:03Z</time>
      </trkpt>
      <trkpt lat="48.37259" lon="2.58013">
        <ele>112.61</ele>
        <time>2016-08-21T08:29:15Z</time>
      </trkpt>
      <trkpt lat="48.37265" lon="2.57987">
        <ele>113.09</ele>
        <time>2016-08-21T08:29:31Z</time>
      </trkpt>
      <trkpt lat="48.37267" lon="2.57982">
        <ele>113.09</ele>
        <time>2016-08-21T08:29:45Z</time>
      </trkpt>
      <trkpt lat="48.37271" lon="2.57981">
        <ele>114.05</ele>
        <time>2016-08-21T08:29:57Z</time>
      </trkpt>
      <trkpt lat="48.37275" lon="2.57984">
        <ele>115.98</ele>
        <time>2016-08-21T08:30:10Z</time>
      </trkpt>
      <trkpt lat="48.37289" lon="2.57988">
        <ele>117.42</ele>
        <time>2016-08-21T08:30:25Z</time>
      </trkpt>
      <trkpt lat="48.37307" lon="2.57993">
        <ele>118.86</ele>
        <time>2016-08-21T08:30:35Z</time>
      </trkpt>
      <trkpt lat="48.37319" lon="2.5799">
        <ele>119.82</ele>
        <time>2016-08-21T08:30:47Z</time>
      </trkpt>
      <trkpt lat="48.37326" lon="2.57978">
        <ele>120.3</ele>
        <time>2016-08-21T08:30:59Z</time>
      </trkpt>
      <trkpt lat="48.37333" lon="2.57962">
        <ele>121.26</ele>
        <time>2016-08-21T08:31:12Z</time>
      </trkpt>
      <trkpt lat="48.37347" lon="2.57946">
        <ele>121.74</ele>
        <time>2016-08-21T08:31:28Z</time>
      </trkpt>
      <trkpt lat="48.37353" lon="2.57949">
        <ele>122.22</ele>
        <time>2016-08-21T08:31:33Z</time>
      </trkpt>
      <trkpt lat="48.37365" lon="2.57961">
        <ele>122.22</ele>
        <time>2016-08-21T08:31:48Z</time>
      </trkpt>
      <trkpt lat="48.37373" lon="2.57956">
        <ele>122.22</ele>
        <time>2016-08-21T08:31:58Z</time>
      </trkpt>
      <trkpt lat="48.37371" lon="2.57941">
        <ele>123.67</ele>
        <time>2016-08-21T08:32:12Z</time>
      </trkpt>
      <trkpt lat="48.37376" lon="2.57921">
        <ele>123.67</ele>
        <time>2016-08-21T08:32:26Z</time>
      </trkpt>
      <trkpt lat="48.37378" lon="2.57907">
        <ele>123.67</ele>
        <time>2016-08-21T08:32:39Z</time>
      </trkpt>
      <trkpt lat="48.37379" lon="2.57906">
        <ele>123.67</ele>
        <time>2016-08-21T08:32:41Z</time>
      </trkpt>
      <trkpt lat="48.37384" lon="2.57903">
        <ele>123.67</ele>
        <time>2016-08-21T08:32:45Z</time>
      </trkpt>
      <trkpt lat="48.37393" lon="2.57891">
        <ele>123.67</ele>
        <time>2016-08-21T08:32:56Z</time>
      </trkpt>
      <trkpt lat="48.37406" lon="2.5789">
        <ele>124.15</ele>
        <time>2016-08-21T08:33:10Z</time>
      </trkpt>
      <trkpt lat="48.3742" lon="2.57892">
        <ele>123.19</ele>
        <time>2016-08-21T08:33:25Z</time>
      </trkpt>
      <trkpt lat="48.37431" lon="2.57898">
        <ele>123.67</ele>
        <time>2016-08-21T08:33:39Z</time>
      </trkpt>
      <trkpt lat="48.37438" lon="2.579">
        <ele>123.19</ele>
        <time>2016-08-21T08:33:45Z</time>
      </trkpt>
      <trkpt lat="48.37445" lon="2.57897">
        <ele>122.71</ele>
        <time>2016-08-21T08:33:58Z</time>
      </trkpt>
      <trkpt lat="48.37453" lon="2.579">
        <ele>122.22</ele>
        <time>2016-08-21T08:34:15Z</time>
      </trkpt>
      <trkpt lat="48.37465" lon="2.57911">
        <ele>121.74</ele>
        <time>2016-08-21T08:34:29Z</time>
      </trkpt>
      <trkpt lat="48.37478" lon="2.57915">
        <ele>120.3</ele>
        <time>2016-08-21T08:34:42Z</time>
      </trkpt>
      <trkpt lat="48.37482" lon="2.57915">
        <ele>120.3</ele>
        <time>2016-08-21T08:34:45Z</time>
      </trkpt>
      <trkpt lat="48.37485" lon="2.57914">
        <ele>119.82</ele>
        <time>2016-08-21T08:34:47Z</time>
      </trkpt>
      <trkpt lat="48.37491" lon="2.57914">
        <ele>119.82</ele>
        <time>2016-08-21T08:34:51Z</time>
      </trkpt>
      <trkpt lat="48.37495" lon="2.57913">
        <ele>119.82</ele>
        <time>2016-08-21T08:34:54Z</time>
      </trkpt>
      <trkpt lat="48.37514" lon="2.57906">
        <ele>119.82</ele>
        <time>2016-08-21T08:35:09Z</time>
      </trkpt>
      <trkpt lat="48.37519" lon="2.57905">
        <ele>120.3</ele>
        <time>2016-08-21T08:35:14Z</time>
      </trkpt>
      <trkpt lat="48.37522" lon="2.57905">
        <ele>119.82</ele>
        <time>2016-08-21T08:35:16Z</time>
      </trkpt>
      <trkpt lat="48.37533" lon="2.57903">
        <ele>120.78</ele>
        <time>2016-08-21T08:35:26Z</time>
      </trkpt>
      <trkpt lat="48.3755" lon="2.57912">
        <ele>120.78</ele>
        <time>2016-08-21T08:35:42Z</time>
      </trkpt>
      <trkpt lat="48.37555" lon="2.57917">
        <ele>121.26</ele>
        <time>2016-08-21T08:35:49Z</time>
      </trkpt>
      <trkpt lat="48.37569" lon="2.57924">
        <ele>121.26</ele>
        <time>2016-08-21T08:36:01Z</time>
      </trkpt>
      <trkpt lat="48.37584" lon="2.57928">
        <ele>120.78</ele>
        <time>2016-08-21T08:36:15Z</time>
      </trkpt>
      <trkpt lat="48.37594" lon="2.57931">
        <ele>120.78</ele>
        <time>2016-08-21T08:36:31Z</time>
      </trkpt>
      <trkpt lat="48.37596" lon="2.57932">
        <ele>121.26</ele>
        <time>2016-08-21T08:36:46Z</time>
      </trkpt>
      <trkpt lat="48.37604" lon="2.57934">
        <ele>119.82</ele>
        <time>2016-08-21T08:37:04Z</time>
      </trkpt>
      <trkpt lat="48.37613" lon="2.57936">
        <ele>119.82</ele>
        <time>2016-08-21T08:37:11Z</time>
      </trkpt>
      <trkpt lat="48.3762" lon="2.57937">
        <ele>120.3</ele>
        <time>2016-08-21T08:37:18Z</time>
      </trkpt>
      <trkpt lat="48.37623" lon="2.57939">
        <ele>119.34</ele>
        <time>2016-08-21T08:37:21Z</time>
      </trkpt>
      <trkpt lat="48.37634" lon="2.57943">
        <ele>120.3</ele>
        <time>2016-08-21T08:37:31Z</time>
      </trkpt>
      <trkpt lat="48.37639" lon="2.57944">
        <ele>119.82</ele>
        <time>2016-08-21T08:37:36Z</time>
      </trkpt>
      <trkpt lat="48.37648" lon="2.57947">
        <ele>119.34</ele>
        <time>2016-08-21T08:37:45Z</time>
      </trkpt>
      <trkpt lat="48.37653" lon="2.57949">
        <ele>118.86</ele>
        <time>2016-08-21T08:37:50Z</time>
      </trkpt>
      <trkpt lat="48.37667" lon="2.57954">
        <ele>118.38</ele>
        <time>2016-08-21T08:38:00Z</time>
      </trkpt>
      <trkpt lat="48.37675" lon="2.57955">
        <ele>118.38</ele>
        <time>2016-08-21T08:38:07Z</time>
      </trkpt>
      <trkpt lat="48.37682" lon="2.57958">
        <ele>118.38</ele>
        <time>2016-08-21T08:38:12Z</time>
      </trkpt>
      <trkpt lat="48.37681" lon="2.57975">
        <ele>118.38</ele>
        <time>2016-08-21T08:38:22Z</time>
      </trkpt>
      <trkpt lat="48.37681" lon="2.57978">
        <ele>118.38</ele>
        <time>2016-08-21T08:38:24Z</time>
      </trkpt>
      <trkpt lat="48.37679" lon="2.57986">
        <ele>118.86</ele>
        <time>2016-08-21T08:38:29Z</time>
      </trkpt>
      <trkpt lat="48.3768" lon="2.57998">
        <ele>118.86</ele>
        <time>2016-08-21T08:38:35Z</time>
      </trkpt>
      <trkpt lat="48.37681" lon="2.58007">
        <ele>118.86</ele>
        <time>2016-08-21T08:38:41Z</time>
      </trkpt>
      <trkpt lat="48.37676" lon="2.5803">
        <ele>120.3</ele>
        <time>2016-08-21T08:38:55Z</time>
      </trkpt>
      <trkpt lat="48.37674" lon="2.58059">
        <ele>120.3</ele>
        <time>2016-08-21T08:39:10Z</time>
      </trkpt>
      <trkpt lat="48.37667" lon="2.58074">
        <ele>121.26</ele>
        <time>2016-08-21T08:39:23Z</time>
      </trkpt>
      <trkpt lat="48.37665" lon="2.58083">
        <ele>121.26</ele>
        <time>2016-08-21T08:39:28Z</time>
      </trkpt>
      <trkpt lat="48.37658" lon="2.58106">
        <ele>121.26</ele>
        <time>2016-08-21T08:39:40Z</time>
      </trkpt>
      <trkpt lat="48.37656" lon="2.5811">
        <ele>121.26</ele>
        <time>2016-08-21T08:39:43Z</time>
      </trkpt>
      <trkpt lat="48.37654" lon="2.58118">
        <ele>121.74</ele>
        <time>2016-08-21T08:39:48Z</time>
      </trkpt>
      <trkpt lat="48.3765" lon="2.58132">
        <ele>121.74</ele>
        <time>2016-08-21T08:39:57Z</time>
      </trkpt>
      <trkpt lat="48.37639" lon="2.58157">
        <ele>121.74</ele>
        <time>2016-08-21T08:40:12Z</time>
      </trkpt>
      <trkpt lat="48.37634" lon="2.58178">
        <ele>121.26</ele>
        <time>2016-08-21T08:40:24Z</time>
      </trkpt>
      <trkpt lat="48.37633" lon="2.58183">
        <ele>121.74</ele>
        <time>2016-08-21T08:40:27Z</time>
      </trkpt>
      <trkpt lat="48.37629" lon="2.58195">
        <ele>121.26</ele>
        <time>2016-08-21T08:40:35Z</time>
      </trkpt>
      <trkpt lat="48.37629" lon="2.58202">
        <ele>121.74</ele>
        <time>2016-08-21T08:40:40Z</time>
      </trkpt>
      <trkpt lat="48.37618" lon="2.58225">
        <ele>122.22</ele>
        <time>2016-08-21T08:40:55Z</time>
      </trkpt>
      <trkpt lat="48.37616" lon="2.58237">
        <ele>122.71</ele>
        <time>2016-08-21T08:41:01Z</time>
      </trkpt>
      <trkpt lat="48.37608" lon="2.58256">
        <ele>121.74</ele>
        <time>2016-08-21T08:41:16Z</time>
      </trkpt>
      <trkpt lat="48.37598" lon="2.58288">
        <ele>121.26</ele>
        <time>2016-08-21T08:41:32Z</time>
      </trkpt>
      <trkpt lat="48.37592" lon="2.58308">
        <ele>122.22</ele>
        <time>2016-08-21T08:41:45Z</time>
      </trkpt>
      <trkpt lat="48.3759" lon="2.58315">
        <ele>122.22</ele>
        <time>2016-08-21T08:41:48Z</time>
      </trkpt>
      <trkpt lat="48.37584" lon="2.58341">
        <ele>122.71</ele>
        <time>2016-08-21T08:42:02Z</time>
      </trkpt>
      <trkpt lat="48.37583" lon="2.58345">
        <ele>122.22</ele>
        <time>2016-08-21T08:42:05Z</time>
      </trkpt>
      <trkpt lat="48.37575" lon="2.58366">
        <ele>122.71</ele>
        <time>2016-08-21T08:42:19Z</time>
      </trkpt>
      <trkpt lat="48.37573" lon="2.58371">
        <ele>123.19</ele>
        <time>2016-08-21T08:42:23Z</time>
      </trkpt>
      <trkpt lat="48.37568" lon="2.58389">
        <ele>124.15</ele>
        <time>2016-08-21T08:42:36Z</time>
      </trkpt>
      <trkpt lat="48.37559" lon="2.58412">
        <ele>124.15</ele>
        <time>2016-08-21T08:42:51Z</time>
      </trkpt>
      <trkpt lat="48.37549" lon="2.58445">
        <ele>124.63</ele>
        <time>2016-08-21T08:43:09Z</time>
      </trkpt>
      <trkpt lat="48.37543" lon="2.58468">
        <ele>124.15</ele>
        <time>2016-08-21T08:43:22Z</time>
      </trkpt>
      <trkpt lat="48.37539" lon="2.58488">
        <ele>124.63</ele>
        <time>2016-08-21T08:43:34Z</time>
      </trkpt>
      <trkpt lat="48.37538" lon="2.5849">
        <ele>124.63</ele>
        <time>2016-08-21T08:43:35Z</time>
      </trkpt>
      <trkpt lat="48.37537" lon="2.58495">
        <ele>124.63</ele>
        <time>2016-08-21T08:43:38Z</time>
      </trkpt>
      <trkpt lat="48.37529" lon="2.58519">
        <ele>124.63</ele>
        <time>2016-08-21T08:43:53Z</time>
      </trkpt>
      <trkpt lat="48.37525" lon="2.58527">
        <ele>124.63</ele>
        <time>2016-08-21T08:44:00Z</time>
      </trkpt>
      <trkpt lat="48.37523" lon="2.58549">
        <ele>125.11</ele>
        <time>2016-08-21T08:44:13Z</time>
      </trkpt>
      <trkpt lat="48.37525" lon="2.58573">
        <ele>125.59</ele>
        <time>2016-08-21T08:44:30Z</time>
      </trkpt>
      <trkpt lat="48.37523" lon="2.58594">
        <ele>125.59</ele>
        <time>2016-08-21T08:44:43Z</time>
      </trkpt>
      <trkpt lat="48.37526" lon="2.58625">
        <ele>125.59</ele>
        <time>2016-08-21T08:45:00Z</time>
      </trkpt>
      <trkpt lat="48.37527" lon="2.58632">
        <ele>125.59</ele>
        <time>2016-08-21T08:45:16Z</time>
      </trkpt>
      <trkpt lat="48.37525" lon="2.58643">
        <ele>125.59</ele>
        <time>2016-08-21T08:45:33Z</time>
      </trkpt>
      <trkpt lat="48.37525" lon="2.58647">
        <ele>125.11</ele>
        <time>2016-08-21T08:45:34Z</time>
      </trkpt>
      <trkpt lat="48.37523" lon="2.58675">
        <ele>125.11</ele>
        <time>2016-08-21T08:45:50Z</time>
      </trkpt>
      <trkpt lat="48.37522" lon="2.58708">
        <ele>125.11</ele>
        <time>2016-08-21T08:46:07Z</time>
      </trkpt>
      <trkpt lat="48.37524" lon="2.58733">
        <ele>125.59</ele>
        <time>2016-08-21T08:46:23Z</time>
      </trkpt>
      <trkpt lat="48.37524" lon="2.58745">
        <ele>125.59</ele>
        <time>2016-08-21T08:46:33Z</time>
      </trkpt>
      <trkpt lat="48.37522" lon="2.58759">
        <ele>125.59</ele>
        <time>2016-08-21T08:46:50Z</time>
      </trkpt>
      <trkpt lat="48.37523" lon="2.58759">
        <ele>126.55</ele>
        <time>2016-08-21T08:47:03Z</time>
      </trkpt>
      <trkpt lat="48.37523" lon="2.58759">
        <ele>125.59</ele>
        <time>2016-08-21T08:47:17Z</time>
      </trkpt>
      <trkpt lat="48.37523" lon="2.58773">
        <ele>126.07</ele>
        <time>2016-08-21T08:47:29Z</time>
      </trkpt>
      <trkpt lat="48.37523" lon="2.58781">
        <ele>126.07</ele>
        <time>2016-08-21T08:47:36Z</time>
      </trkpt>
      <trkpt lat="48.37524" lon="2.58795">
        <ele>126.07</ele>
        <time>2016-08-21T08:47:44Z</time>
      </trkpt>
      <trkpt lat="48.37525" lon="2.58803">
        <ele>126.07</ele>
        <time>2016-08-21T08:47:48Z</time>
      </trkpt>
      <trkpt lat="48.37526" lon="2.58824">
        <ele>125.59</ele>
        <time>2016-08-21T08:48:03Z</time>
      </trkpt>
      <trkpt lat="48.37526" lon="2.58843">
        <ele>125.59</ele>
        <time>2016-08-21T08:48:18Z</time>
      </trkpt>
      <trkpt lat="48.37524" lon="2.58856">
        <ele>125.59</ele>
        <time>2016-08-21T08:48:32Z</time>
      </trkpt>
      <trkpt lat="48.37525" lon="2.58861">
        <ele>125.59</ele>
        <time>2016-08-21T08:48:44Z</time>
      </trkpt>
      <trkpt lat="48.37524" lon="2.5886">
        <ele>125.59</ele>
        <time>2016-08-21T08:49:04Z</time>
      </trkpt>
      <trkpt lat="48.37525" lon="2.5886">
        <ele>125.59</ele>
        <time>2016-08-21T08:49:20Z</time>
      </trkpt>
      <trkpt lat="48.37525" lon="2.58862">
        <ele>125.11</ele>
        <time>2016-08-21T08:49:21Z</time>
      </trkpt>
      <trkpt lat="48.37524" lon="2.58884">
        <ele>125.59</ele>
        <time>2016-08-21T08:49:33Z</time>
      </trkpt>
      <trkpt lat="48.37524" lon="2.58898">
        <ele>125.59</ele>
        <time>2016-08-21T08:49:41Z</time>
      </trkpt>
      <trkpt lat="48.37525" lon="2.58905">
        <ele>125.59</ele>
        <time>2016-08-21T08:49:46Z</time>
      </trkpt>
      <trkpt lat="48.37526" lon="2.58917">
        <ele>125.59</ele>
        <time>2016-08-21T08:49:53Z</time>
      </trkpt>
      <trkpt lat="48.37528" lon="2.58928">
        <ele>125.11</ele>
        <time>2016-08-21T08:50:00Z</time>
      </trkpt>
      <trkpt lat="48.37528" lon="2.58943">
        <ele>125.59</ele>
        <time>2016-08-21T08:50:07Z</time>
      </trkpt>
      <trkpt lat="48.3753" lon="2.58956">
        <ele>125.59</ele>
        <time>2016-08-21T08:50:13Z</time>
      </trkpt>
      <trkpt lat="48.37527" lon="2.5897">
        <ele>125.59</ele>
        <time>2016-08-21T08:50:21Z</time>
      </trkpt>
      <trkpt lat="48.37526" lon="2.58986">
        <ele>125.59</ele>
        <time>2016-08-21T08:50:30Z</time>
      </trkpt>
      <trkpt lat="48.37525" lon="2.59002">
        <ele>126.07</ele>
        <time>2016-08-21T08:50:38Z</time>
      </trkpt>
      <trkpt lat="48.37525" lon="2.59024">
        <ele>125.59</ele>
        <time>2016-08-21T08:50:51Z</time>
      </trkpt>
      <trkpt lat="48.37529" lon="2.5905">
        <ele>125.59</ele>
        <time>2016-08-21T08:51:04Z</time>
      </trkpt>
      <trkpt lat="48.3753" lon="2.59059">
        <ele>125.59</ele>
        <time>2016-08-21T08:51:11Z</time>
      </trkpt>
      <trkpt lat="48.37529" lon="2.5907">
        <ele>125.59</ele>
        <time>2016-08-21T08:51:18Z</time>
      </trkpt>
      <trkpt lat="48.37531" lon="2.59082">
        <ele>125.59</ele>
        <time>2016-08-21T08:51:24Z</time>
      </trkpt>
      <trkpt lat="48.3753" lon="2.59092">
        <ele>126.07</ele>
        <time>2016-08-21T08:51:30Z</time>
      </trkpt>
      <trkpt lat="48.37529" lon="2.59115">
        <ele>126.55</ele>
        <time>2016-08-21T08:51:43Z</time>
      </trkpt>
      <trkpt lat="48.37529" lon="2.59116">
        <ele>126.07</ele>
        <time>2016-08-21T08:51:44Z</time>
      </trkpt>
      <trkpt lat="48.37527" lon="2.59126">
        <ele>126.07</ele>
        <time>2016-08-21T08:51:50Z</time>
      </trkpt>
      <trkpt lat="48.37529" lon="2.59147">
        <ele>126.55</ele>
        <time>2016-08-21T08:52:00Z</time>
      </trkpt>
      <trkpt lat="48.3753" lon="2.59162">
        <ele>126.55</ele>
        <time>2016-08-21T08:52:09Z</time>
      </trkpt>
      <trkpt lat="48.37531" lon="2.59173">
        <ele>126.55</ele>
        <time>2016-08-21T08:52:15Z</time>
      </trkpt>
      <trkpt lat="48.3753" lon="2.59184">
        <ele>126.55</ele>
        <time>2016-08-21T08:52:20Z</time>
      </trkpt>
      <trkpt lat="48.37528" lon="2.592">
        <ele>127.03</ele>
        <time>2016-08-21T08:52:33Z</time>
      </trkpt>
      <trkpt lat="48.37529" lon="2.59197">
        <ele>127.03</ele>
        <time>2016-08-21T08:53:00Z</time>
      </trkpt>
      <trkpt lat="48.3753" lon="2.59212">
        <ele>127.03</ele>
        <time>2016-08-21T08:53:15Z</time>
      </trkpt>
      <trkpt lat="48.37529" lon="2.59236">
        <ele>127.51</ele>
        <time>2016-08-21T08:53:28Z</time>
      </trkpt>
      <trkpt lat="48.37529" lon="2.59239">
        <ele>127.99</ele>
        <time>2016-08-21T08:53:30Z</time>
      </trkpt>
      <trkpt lat="48.37528" lon="2.59257">
        <ele>127.99</ele>
        <time>2016-08-21T08:53:42Z</time>
      </trkpt>
      <trkpt lat="48.37529" lon="2.59274">
        <ele>127.51</ele>
        <time>2016-08-21T08:53:54Z</time>
      </trkpt>
      <trkpt lat="48.3753" lon="2.59275">
        <ele>127.99</ele>
        <time>2016-08-21T08:53:55Z</time>
      </trkpt>
      <trkpt lat="48.37532" lon="2.59309">
        <ele>127.99</ele>
        <time>2016-08-21T08:54:08Z</time>
      </trkpt>
      <trkpt lat="48.37533" lon="2.59326">
        <ele>128.47</ele>
        <time>2016-08-21T08:54:22Z</time>
      </trkpt>
      <trkpt lat="48.37531" lon="2.59361">
        <ele>127.99</ele>
        <time>2016-08-21T08:54:38Z</time>
      </trkpt>
      <trkpt lat="48.37532" lon="2.59382">
        <ele>128.47</ele>
        <time>2016-08-21T08:54:53Z</time>
      </trkpt>
      <trkpt lat="48.37532" lon="2.59384">
        <ele>127.99</ele>
        <time>2016-08-21T08:54:54Z</time>
      </trkpt>
      <trkpt lat="48.37532" lon="2.59403">
        <ele>127.99</ele>
        <time>2016-08-21T08:55:04Z</time>
      </trkpt>
      <trkpt lat="48.37531" lon="2.59416">
        <ele>127.99</ele>
        <time>2016-08-21T08:55:11Z</time>
      </trkpt>
      <trkpt lat="48.37529" lon="2.59436">
        <ele>127.99</ele>
        <time>2016-08-21T08:55:21Z</time>
      </trkpt>
      <trkpt lat="48.37531" lon="2.59443">
        <ele>127.99</ele>
        <time>2016-08-21T08:55:26Z</time>
      </trkpt>
      <trkpt lat="48.37532" lon="2.59456">
        <ele>128.47</ele>
        <time>2016-08-21T08:55:32Z</time>
      </trkpt>
      <trkpt lat="48.37524" lon="2.59473">
        <ele>128.47</ele>
        <time>2016-08-21T08:55:44Z</time>
      </trkpt>
      <trkpt lat="48.37524" lon="2.59473">
        <ele>127.99</ele>
        <time>2016-08-21T08:56:00Z</time>
      </trkpt>
      <trkpt lat="48.37525" lon="2.59474">
        <ele>127.51</ele>
        <time>2016-08-21T08:56:03Z</time>
      </trkpt>
      <trkpt lat="48.37527" lon="2.59477">
        <ele>127.99</ele>
        <time>2016-08-21T08:56:07Z</time>
      </trkpt>
      <trkpt lat="48.3753" lon="2.59483">
        <ele>128.47</ele>
        <time>2016-08-21T08:56:13Z</time>
      </trkpt>
      <trkpt lat="48.37533" lon="2.59502">
        <ele>128.47</ele>
        <time>2016-08-21T08:56:27Z</time>
      </trkpt>
      <trkpt lat="48.37533" lon="2.59508">
        <ele>127.99</ele>
        <time>2016-08-21T08:56:30Z</time>
      </trkpt>
      <trkpt lat="48.37533" lon="2.59518">
        <ele>128.47</ele>
        <time>2016-08-21T08:56:35Z</time>
      </trkpt>
      <trkpt lat="48.37534" lon="2.59521">
        <ele>128.47</ele>
        <time>2016-08-21T08:56:37Z</time>
      </trkpt>
      <trkpt lat="48.37533" lon="2.5953">
        <ele>127.99</ele>
        <time>2016-08-21T08:56:41Z</time>
      </trkpt>
      <trkpt lat="48.37533" lon="2.59536">
        <ele>127.99</ele>
        <time>2016-08-21T08:56:44Z</time>
      </trkpt>
      <trkpt lat="48.37533" lon="2.59546">
        <ele>127.51</ele>
        <time>2016-08-21T08:56:49Z</time>
      </trkpt>
      <trkpt lat="48.37528" lon="2.5957">
        <ele>127.51</ele>
        <time>2016-08-21T08:57:00Z</time>
      </trkpt>
      <trkpt lat="48.37531" lon="2.59604">
        <ele>127.51</ele>
        <time>2016-08-21T08:57:16Z</time>
      </trkpt>
      <trkpt lat="48.37531" lon="2.59627">
        <ele>127.51</ele>
        <time>2016-08-21T08:57:29Z</time>
      </trkpt>
      <trkpt lat="48.37533" lon="2.5965">
        <ele>127.99</ele>
        <time>2016-08-21T08:57:42Z</time>
      </trkpt>
      <trkpt lat="48.37534" lon="2.59653">
        <ele>127.99</ele>
        <time>2016-08-21T08:57:44Z</time>
      </trkpt>
      <trkpt lat="48.37532" lon="2.59678">
        <ele>127.51</ele>
        <time>2016-08-21T08:57:59Z</time>
      </trkpt>
      <trkpt lat="48.37533" lon="2.59687">
        <ele>127.99</ele>
        <time>2016-08-21T08:58:04Z</time>
      </trkpt>
      <trkpt lat="48.37532" lon="2.597">
        <ele>127.99</ele>
        <time>2016-08-21T08:58:14Z</time>
      </trkpt>
      <trkpt lat="48.3753" lon="2.59707">
        <ele>127.99</ele>
        <time>2016-08-21T08:58:20Z</time>
      </trkpt>
      <trkpt lat="48.37528" lon="2.59716">
        <ele>127.51</ele>
        <time>2016-08-21T08:58:26Z</time>
      </trkpt>
      <trkpt lat="48.37523" lon="2.59726">
        <ele>127.99</ele>
        <time>2016-08-21T08:58:40Z</time>
      </trkpt>
      <trkpt lat="48.37523" lon="2.59725">
        <ele>128.47</ele>
        <time>2016-08-21T08:58:44Z</time>
      </trkpt>
      <trkpt lat="48.37521" lon="2.59729">
        <ele>128.95</ele>
        <time>2016-08-21T08:59:02Z</time>
      </trkpt>
      <trkpt lat="48.37515" lon="2.59739">
        <ele>128.95</ele>
        <time>2016-08-21T08:59:13Z</time>
      </trkpt>
      <trkpt lat="48.37514" lon="2.59741">
        <ele>128.95</ele>
        <time>2016-08-21T08:59:27Z</time>
      </trkpt>
      <trkpt lat="48.37514" lon="2.59741">
        <ele>129.43</ele>
        <time>2016-08-21T08:59:44Z</time>
      </trkpt>
      <trkpt lat="48.3751" lon="2.5975">
        <ele>129.92</ele>
        <time>2016-08-21T08:59:58Z</time>
      </trkpt>
      <trkpt lat="48.3751" lon="2.59751">
        <ele>129.92</ele>
        <time>2016-08-21T09:00:14Z</time>
      </trkpt>
      <trkpt lat="48.3751" lon="2.5975">
        <ele>130.88</ele>
        <time>2016-08-21T09:00:38Z</time>
      </trkpt>
      <trkpt lat="48.3751" lon="2.59749">
        <ele>129.92</ele>
        <time>2016-08-21T09:01:04Z</time>
      </trkpt>
      <trkpt lat="48.3751" lon="2.59751">
        <ele>130.4</ele>
        <time>2016-08-21T09:01:23Z</time>
      </trkpt>
      <trkpt lat="48.37507" lon="2.59763">
        <ele>129.43</ele>
        <time>2016-08-21T09:01:35Z</time>
      </trkpt>
      <trkpt lat="48.37506" lon="2.59765">
        <ele>128.95</ele>
        <time>2016-08-21T09:01:38Z</time>
      </trkpt>
      <trkpt lat="48.37505" lon="2.5977">
        <ele>127.99</ele>
        <time>2016-08-21T09:01:50Z</time>
      </trkpt>
      <trkpt lat="48.37504" lon="2.59773">
        <ele>127.51</ele>
        <time>2016-08-21T09:01:52Z</time>
      </trkpt>
      <trkpt lat="48.37503" lon="2.59775">
        <ele>127.03</ele>
        <time>2016-08-21T09:01:54Z</time>
      </trkpt>
      <trkpt lat="48.37502" lon="2.59779">
        <ele>126.55</ele>
        <time>2016-08-21T09:01:57Z</time>
      </trkpt>
      <trkpt lat="48.37495" lon="2.59792">
        <ele>127.03</ele>
        <time>2016-08-21T09:02:09Z</time>
      </trkpt>
      <trkpt lat="48.37494" lon="2.59797">
        <ele>127.03</ele>
        <time>2016-08-21T09:02:24Z</time>
      </trkpt>
      <trkpt lat="48.37491" lon="2.59802">
        <ele>127.03</ele>
        <time>2016-08-21T09:02:29Z</time>
      </trkpt>
      <trkpt lat="48.37489" lon="2.59805">
        <ele>127.51</ele>
        <time>2016-08-21T09:02:32Z</time>
      </trkpt>
      <trkpt lat="48.37486" lon="2.59809">
        <ele>128.95</ele>
        <time>2016-08-21T09:02:44Z</time>
      </trkpt>
      <trkpt lat="48.37482" lon="2.59817">
        <ele>130.4</ele>
        <time>2016-08-21T09:02:57Z</time>
      </trkpt>
      <trkpt lat="48.3748" lon="2.59817">
        <ele>130.88</ele>
        <time>2016-08-21T09:03:07Z</time>
      </trkpt>
      <trkpt lat="48.37481" lon="2.59815">
        <ele>131.36</ele>
        <time>2016-08-21T09:03:22Z</time>
      </trkpt>
      <trkpt lat="48.37479" lon="2.59812">
        <ele>130.88</ele>
        <time>2016-08-21T09:03:29Z</time>
      </trkpt>
      <trkpt lat="48.37473" lon="2.59802">
        <ele>129.43</ele>
        <time>2016-08-21T09:03:38Z</time>
      </trkpt>
      <trkpt lat="48.37465" lon="2.59796">
        <ele>128.47</ele>
        <time>2016-08-21T09:03:49Z</time>
      </trkpt>
      <trkpt lat="48.37462" lon="2.59789">
        <ele>127.03</ele>
        <time>2016-08-21T09:04:00Z</time>
      </trkpt>
      <trkpt lat="48.37456" lon="2.59778">
        <ele>125.59</ele>
        <time>2016-08-21T09:04:11Z</time>
      </trkpt>
      <trkpt lat="48.37448" lon="2.59779">
        <ele>125.59</ele>
        <time>2016-08-21T09:04:24Z</time>
      </trkpt>
      <trkpt lat="48.37445" lon="2.59775">
        <ele>126.07</ele>
        <time>2016-08-21T09:04:35Z</time>
      </trkpt>
      <trkpt lat="48.37443" lon="2.59771">
        <ele>125.59</ele>
        <time>2016-08-21T09:04:47Z</time>
      </trkpt>
      <trkpt lat="48.37438" lon="2.59764">
        <ele>125.59</ele>
        <time>2016-08-21T09:05:00Z</time>
      </trkpt>
      <trkpt lat="48.37429" lon="2.59758">
        <ele>125.11</ele>
        <time>2016-08-21T09:05:12Z</time>
      </trkpt>
      <trkpt lat="48.37423" lon="2.59753">
        <ele>125.59</ele>
        <time>2016-08-21T09:05:26Z</time>
      </trkpt>
      <trkpt lat="48.37421" lon="2.59749">
        <ele>125.11</ele>
        <time>2016-08-21T09:05:44Z</time>
      </trkpt>
      <trkpt lat="48.37419" lon="2.59748">
        <ele>126.07</ele>
        <time>2016-08-21T09:05:57Z</time>
      </trkpt>
      <trkpt lat="48.37415" lon="2.59744">
        <ele>126.07</ele>
        <time>2016-08-21T09:06:14Z</time>
      </trkpt>
      <trkpt lat="48.37404" lon="2.59744">
        <ele>127.03</ele>
        <time>2016-08-21T09:06:28Z</time>
      </trkpt>
      <trkpt lat="48.37395" lon="2.5974">
        <ele>127.03</ele>
        <time>2016-08-21T09:06:44Z</time>
      </trkpt>
      <trkpt lat="48.37388" lon="2.59737">
        <ele>125.59</ele>
        <time>2016-08-21T09:06:56Z</time>
      </trkpt>
      <trkpt lat="48.3737" lon="2.59734">
        <ele>125.11</ele>
        <time>2016-08-21T09:07:10Z</time>
      </trkpt>
      <trkpt lat="48.37363" lon="2.59729">
        <ele>125.11</ele>
        <time>2016-08-21T09:07:27Z</time>
      </trkpt>
      <trkpt lat="48.37359" lon="2.59728">
        <ele>125.11</ele>
        <time>2016-08-21T09:07:48Z</time>
      </trkpt>
      <trkpt lat="48.37351" lon="2.59739">
        <ele>125.11</ele>
        <time>2016-08-21T09:08:00Z</time>
      </trkpt>
      <trkpt lat="48.37347" lon="2.59746">
        <ele>125.59</ele>
        <time>2016-08-21T09:08:06Z</time>
      </trkpt>
      <trkpt lat="48.37342" lon="2.59754">
        <ele>125.11</ele>
        <time>2016-08-21T09:08:12Z</time>
      </trkpt>
      <trkpt lat="48.37339" lon="2.59756">
        <ele>125.11</ele>
        <time>2016-08-21T09:08:17Z</time>
      </trkpt>
      <trkpt lat="48.37328" lon="2.59774">
        <ele>123.67</ele>
        <time>2016-08-21T09:08:28Z</time>
      </trkpt>
      <trkpt lat="48.37318" lon="2.59787">
        <ele>124.15</ele>
        <time>2016-08-21T09:08:40Z</time>
      </trkpt>
      <trkpt lat="48.37311" lon="2.59804">
        <ele>123.67</ele>
        <time>2016-08-21T09:08:50Z</time>
      </trkpt>
      <trkpt lat="48.37304" lon="2.59817">
        <ele>124.15</ele>
        <time>2016-08-21T09:09:02Z</time>
      </trkpt>
      <trkpt lat="48.37295" lon="2.59833">
        <ele>124.15</ele>
        <time>2016-08-21T09:09:13Z</time>
      </trkpt>
      <trkpt lat="48.37287" lon="2.59843">
        <ele>124.15</ele>
        <time>2016-08-21T09:09:24Z</time>
      </trkpt>
      <trkpt lat="48.37278" lon="2.59851">
        <ele>124.15</ele>
        <time>2016-08-21T09:09:31Z</time>
      </trkpt>
      <trkpt lat="48.37268" lon="2.59863">
        <ele>123.67</ele>
        <time>2016-08-21T09:09:42Z</time>
      </trkpt>
      <trkpt lat="48.37261" lon="2.59879">
        <ele>123.67</ele>
        <time>2016-08-21T09:09:54Z</time>
      </trkpt>
      <trkpt lat="48.37248" lon="2.59896">
        <ele>123.67</ele>
        <time>2016-08-21T09:10:09Z</time>
      </trkpt>
      <trkpt lat="48.37246" lon="2.59898">
        <ele>124.15</ele>
        <time>2016-08-21T09:10:11Z</time>
      </trkpt>
      <trkpt lat="48.37231" lon="2.59917">
        <ele>124.63</ele>
        <time>2016-08-21T09:10:26Z</time>
      </trkpt>
      <trkpt lat="48.37224" lon="2.59927">
        <ele>125.59</ele>
        <time>2016-08-21T09:10:35Z</time>
      </trkpt>
      <trkpt lat="48.37216" lon="2.59943">
        <ele>125.11</ele>
        <time>2016-08-21T09:10:48Z</time>
      </trkpt>
      <trkpt lat="48.37204" lon="2.59957">
        <ele>122.71</ele>
        <time>2016-08-21T09:11:02Z</time>
      </trkpt>
      <trkpt lat="48.37201" lon="2.59962">
        <ele>122.22</ele>
        <time>2016-08-21T09:11:06Z</time>
      </trkpt>
      <trkpt lat="48.37189" lon="2.5997">
        <ele>122.22</ele>
        <time>2016-08-21T09:11:19Z</time>
      </trkpt>
      <trkpt lat="48.37176" lon="2.59979">
        <ele>122.22</ele>
        <time>2016-08-21T09:11:31Z</time>
      </trkpt>
      <trkpt lat="48.3717" lon="2.59985">
        <ele>121.26</ele>
        <time>2016-08-21T09:11:37Z</time>
      </trkpt>
      <trkpt lat="48.37164" lon="2.60001">
        <ele>120.3</ele>
        <time>2016-08-21T09:11:47Z</time>
      </trkpt>
      <trkpt lat="48.37163" lon="2.60001">
        <ele>120.78</ele>
        <time>2016-08-21T09:11:48Z</time>
      </trkpt>
      <trkpt lat="48.37161" lon="2.60008">
        <ele>120.78</ele>
        <time>2016-08-21T09:11:53Z</time>
      </trkpt>
      <trkpt lat="48.37158" lon="2.60016">
        <ele>120.78</ele>
        <time>2016-08-21T09:11:59Z</time>
      </trkpt>
      <trkpt lat="48.37147" lon="2.60036">
        <ele>122.22</ele>
        <time>2016-08-21T09:12:11Z</time>
      </trkpt>
      <trkpt lat="48.37138" lon="2.60053">
        <ele>123.19</ele>
        <time>2016-08-21T09:12:24Z</time>
      </trkpt>
      <trkpt lat="48.37132" lon="2.60061">
        <ele>123.19</ele>
        <time>2016-08-21T09:12:31Z</time>
      </trkpt>
      <trkpt lat="48.37126" lon="2.60067">
        <ele>122.71</ele>
        <time>2016-08-21T09:12:38Z</time>
      </trkpt>
      <trkpt lat="48.37117" lon="2.60071">
        <ele>123.19</ele>
        <time>2016-08-21T09:12:47Z</time>
      </trkpt>
      <trkpt lat="48.37111" lon="2.60076">
        <ele>122.71</ele>
        <time>2016-08-21T09:12:53Z</time>
      </trkpt>
      <trkpt lat="48.37105" lon="2.60082">
        <ele>122.71</ele>
        <time>2016-08-21T09:13:00Z</time>
      </trkpt>
      <trkpt lat="48.37093" lon="2.60095">
        <ele>122.71</ele>
        <time>2016-08-21T09:13:12Z</time>
      </trkpt>
      <trkpt lat="48.37087" lon="2.60098">
        <ele>123.19</ele>
        <time>2016-08-21T09:13:23Z</time>
      </trkpt>
      <trkpt lat="48.37075" lon="2.60101">
        <ele>121.74</ele>
        <time>2016-08-21T09:13:37Z</time>
      </trkpt>
      <trkpt lat="48.37065" lon="2.60105">
        <ele>121.26</ele>
        <time>2016-08-21T09:13:44Z</time>
      </trkpt>
      <trkpt lat="48.37059" lon="2.60108">
        <ele>120.78</ele>
        <time>2016-08-21T09:13:51Z</time>
      </trkpt>
      <trkpt lat="48.37043" lon="2.60116">
        <ele>120.3</ele>
        <time>2016-08-21T09:14:03Z</time>
      </trkpt>
      <trkpt lat="48.37031" lon="2.60118">
        <ele>119.82</ele>
        <time>2016-08-21T09:14:17Z</time>
      </trkpt>
      <trkpt lat="48.37015" lon="2.60124">
        <ele>121.26</ele>
        <time>2016-08-21T09:14:30Z</time>
      </trkpt>
      <trkpt lat="48.37007" lon="2.60126">
        <ele>122.71</ele>
        <time>2016-08-21T09:14:41Z</time>
      </trkpt>
      <trkpt lat="48.37006" lon="2.60126">
        <ele>122.71</ele>
        <time>2016-08-21T09:14:42Z</time>
      </trkpt>
      <trkpt lat="48.36994" lon="2.60133">
        <ele>122.71</ele>
        <time>2016-08-21T09:14:54Z</time>
      </trkpt>
      <trkpt lat="48.36983" lon="2.60139">
        <ele>122.22</ele>
        <time>2016-08-21T09:15:06Z</time>
      </trkpt>
      <trkpt lat="48.36967" lon="2.60149">
        <ele>121.74</ele>
        <time>2016-08-21T09:15:20Z</time>
      </trkpt>
      <trkpt lat="48.36959" lon="2.60158">
        <ele>121.26</ele>
        <time>2016-08-21T09:15:32Z</time>
      </trkpt>
      <trkpt lat="48.36945" lon="2.60163">
        <ele>120.78</ele>
        <time>2016-08-21T09:15:43Z</time>
      </trkpt>
      <trkpt lat="48.36935" lon="2.60172">
        <ele>120.3</ele>
        <time>2016-08-21T09:15:53Z</time>
      </trkpt>
      <trkpt lat="48.36928" lon="2.60177">
        <ele>120.78</ele>
        <time>2016-08-21T09:15:59Z</time>
      </trkpt>
      <trkpt lat="48.36917" lon="2.60186">
        <ele>120.78</ele>
        <time>2016-08-21T09:16:09Z</time>
      </trkpt>
      <trkpt lat="48.36904" lon="2.60202">
        <ele>121.74</ele>
        <time>2016-08-21T09:16:22Z</time>
      </trkpt>
      <trkpt lat="48.36905" lon="2.60204">
        <ele>121.74</ele>
        <time>2016-08-21T09:16:24Z</time>
      </trkpt>
      <trkpt lat="48.36898" lon="2.60218">
        <ele>121.26</ele>
        <time>2016-08-21T09:16:36Z</time>
      </trkpt>
      <trkpt lat="48.36895" lon="2.60222">
        <ele>121.74</ele>
        <time>2016-08-21T09:16:41Z</time>
      </trkpt>
      <trkpt lat="48.36893" lon="2.60225">
        <ele>121.74</ele>
        <time>2016-08-21T09:16:44Z</time>
      </trkpt>
      <trkpt lat="48.36887" lon="2.60232">
        <ele>122.22</ele>
        <time>2016-08-21T09:16:50Z</time>
      </trkpt>
      <trkpt lat="48.36884" lon="2.60236">
        <ele>122.22</ele>
        <time>2016-08-21T09:16:56Z</time>
      </trkpt>
      <trkpt lat="48.36878" lon="2.60245">
        <ele>122.22</ele>
        <time>2016-08-21T09:17:02Z</time>
      </trkpt>
      <trkpt lat="48.36874" lon="2.60257">
        <ele>122.22</ele>
        <time>2016-08-21T09:17:09Z</time>
      </trkpt>
      <trkpt lat="48.36862" lon="2.60273">
        <ele>122.71</ele>
        <time>2016-08-21T09:17:21Z</time>
      </trkpt>
      <trkpt lat="48.36858" lon="2.60278">
        <ele>123.19</ele>
        <time>2016-08-21T09:17:26Z</time>
      </trkpt>
      <trkpt lat="48.36854" lon="2.60288">
        <ele>122.22</ele>
        <time>2016-08-21T09:17:33Z</time>
      </trkpt>
      <trkpt lat="48.36851" lon="2.60297">
        <ele>121.74</ele>
        <time>2016-08-21T09:17:39Z</time>
      </trkpt>
      <trkpt lat="48.36848" lon="2.60307">
        <ele>121.26</ele>
        <time>2016-08-21T09:17:45Z</time>
      </trkpt>
      <trkpt lat="48.36844" lon="2.60315">
        <ele>120.78</ele>
        <time>2016-08-21T09:17:53Z</time>
      </trkpt>
      <trkpt lat="48.36839" lon="2.6032">
        <ele>121.26</ele>
        <time>2016-08-21T09:17:57Z</time>
      </trkpt>
      <trkpt lat="48.36832" lon="2.60327">
        <ele>120.78</ele>
        <time>2016-08-21T09:18:04Z</time>
      </trkpt>
      <trkpt lat="48.36827" lon="2.60336">
        <ele>120.3</ele>
        <time>2016-08-21T09:18:10Z</time>
      </trkpt>
      <trkpt lat="48.36824" lon="2.60342">
        <ele>120.3</ele>
        <time>2016-08-21T09:18:15Z</time>
      </trkpt>
      <trkpt lat="48.36811" lon="2.60357">
        <ele>121.26</ele>
        <time>2016-08-21T09:18:28Z</time>
      </trkpt>
      <trkpt lat="48.36804" lon="2.60366">
        <ele>120.3</ele>
        <time>2016-08-21T09:18:35Z</time>
      </trkpt>
      <trkpt lat="48.36795" lon="2.60378">
        <ele>120.78</ele>
        <time>2016-08-21T09:18:47Z</time>
      </trkpt>
      <trkpt lat="48.36787" lon="2.60395">
        <ele>121.26</ele>
        <time>2016-08-21T09:18:57Z</time>
      </trkpt>
      <trkpt lat="48.36783" lon="2.60401">
        <ele>120.78</ele>
        <time>2016-08-21T09:19:01Z</time>
      </trkpt>
      <trkpt lat="48.3678" lon="2.60407">
        <ele>121.26</ele>
        <time>2016-08-21T09:19:04Z</time>
      </trkpt>
      <trkpt lat="48.36777" lon="2.60412">
        <ele>121.26</ele>
        <time>2016-08-21T09:19:07Z</time>
      </trkpt>
      <trkpt lat="48.36774" lon="2.60418">
        <ele>121.26</ele>
        <time>2016-08-21T09:19:11Z</time>
      </trkpt>
      <trkpt lat="48.36763" lon="2.60434">
        <ele>121.26</ele>
        <time>2016-08-21T09:19:24Z</time>
      </trkpt>
      <trkpt lat="48.36759" lon="2.60439">
        <ele>121.26</ele>
        <time>2016-08-21T09:19:31Z</time>
      </trkpt>
      <trkpt lat="48.36756" lon="2.60446">
        <ele>121.26</ele>
        <time>2016-08-21T09:19:37Z</time>
      </trkpt>
      <trkpt lat="48.36749" lon="2.60456">
        <ele>121.26</ele>
        <time>2016-08-21T09:19:44Z</time>
      </trkpt>
      <trkpt lat="48.36734" lon="2.60473">
        <ele>121.74</ele>
        <time>2016-08-21T09:20:00Z</time>
      </trkpt>
      <trkpt lat="48.36727" lon="2.60483">
        <ele>122.22</ele>
        <time>2016-08-21T09:20:10Z</time>
      </trkpt>
      <trkpt lat="48.36719" lon="2.60492">
        <ele>122.71</ele>
        <time>2016-08-21T09:20:20Z</time>
      </trkpt>
      <trkpt lat="48.3671" lon="2.60508">
        <ele>122.22</ele>
        <time>2016-08-21T09:20:32Z</time>
      </trkpt>
      <trkpt lat="48.36701" lon="2.6052">
        <ele>122.71</ele>
        <time>2016-08-21T09:20:43Z</time>
      </trkpt>
      <trkpt lat="48.367" lon="2.60521">
        <ele>122.22</ele>
        <time>2016-08-21T09:20:45Z</time>
      </trkpt>
      <trkpt lat="48.36691" lon="2.6053">
        <ele>122.22</ele>
        <time>2016-08-21T09:20:53Z</time>
      </trkpt>
      <trkpt lat="48.36683" lon="2.60543">
        <ele>122.71</ele>
        <time>2016-08-21T09:21:06Z</time>
      </trkpt>
      <trkpt lat="48.36681" lon="2.60546">
        <ele>122.71</ele>
        <time>2016-08-21T09:21:09Z</time>
      </trkpt>
      <trkpt lat="48.36671" lon="2.60559">
        <ele>122.71</ele>
        <time>2016-08-21T09:21:18Z</time>
      </trkpt>
      <trkpt lat="48.36663" lon="2.60574">
        <ele>123.67</ele>
        <time>2016-08-21T09:21:28Z</time>
      </trkpt>
      <trkpt lat="48.3666" lon="2.60582">
        <ele>124.15</ele>
        <time>2016-08-21T09:21:33Z</time>
      </trkpt>
      <trkpt lat="48.36657" lon="2.60598">
        <ele>124.15</ele>
        <time>2016-08-21T09:21:45Z</time>
      </trkpt>
      <trkpt lat="48.36653" lon="2.60607">
        <ele>123.19</ele>
        <time>2016-08-21T09:21:50Z</time>
      </trkpt>
      <trkpt lat="48.3665" lon="2.60619">
        <ele>123.19</ele>
        <time>2016-08-21T09:21:57Z</time>
      </trkpt>
      <trkpt lat="48.36645" lon="2.60636">
        <ele>123.67</ele>
        <time>2016-08-21T09:22:07Z</time>
      </trkpt>
      <trkpt lat="48.36644" lon="2.60639">
        <ele>123.67</ele>
        <time>2016-08-21T09:22:09Z</time>
      </trkpt>
      <trkpt lat="48.3664" lon="2.60658">
        <ele>123.67</ele>
        <time>2016-08-21T09:22:21Z</time>
      </trkpt>
      <trkpt lat="48.36638" lon="2.60669">
        <ele>123.67</ele>
        <time>2016-08-21T09:22:27Z</time>
      </trkpt>
      <trkpt lat="48.36637" lon="2.60679">
        <ele>123.67</ele>
        <time>2016-08-21T09:22:33Z</time>
      </trkpt>
      <trkpt lat="48.36632" lon="2.60698">
        <ele>123.19</ele>
        <time>2016-08-21T09:22:46Z</time>
      </trkpt>
      <trkpt lat="48.36632" lon="2.60701">
        <ele>123.19</ele>
        <time>2016-08-21T09:22:48Z</time>
      </trkpt>
      <trkpt lat="48.36628" lon="2.60713">
        <ele>123.67</ele>
        <time>2016-08-21T09:22:54Z</time>
      </trkpt>
      <trkpt lat="48.36625" lon="2.60717">
        <ele>123.67</ele>
        <time>2016-08-21T09:22:57Z</time>
      </trkpt>
      <trkpt lat="48.36621" lon="2.6074">
        <ele>124.15</ele>
        <time>2016-08-21T09:23:11Z</time>
      </trkpt>
      <trkpt lat="48.36615" lon="2.60759">
        <ele>124.63</ele>
        <time>2016-08-21T09:23:24Z</time>
      </trkpt>
      <trkpt lat="48.36613" lon="2.60782">
        <ele>124.63</ele>
        <time>2016-08-21T09:23:35Z</time>
      </trkpt>
      <trkpt lat="48.36613" lon="2.60784">
        <ele>125.11</ele>
        <time>2016-08-21T09:23:36Z</time>
      </trkpt>
      <trkpt lat="48.36612" lon="2.60787">
        <ele>124.63</ele>
        <time>2016-08-21T09:23:38Z</time>
      </trkpt>
      <trkpt lat="48.36611" lon="2.60796">
        <ele>125.11</ele>
        <time>2016-08-21T09:23:44Z</time>
      </trkpt>
      <trkpt lat="48.36608" lon="2.60803">
        <ele>125.11</ele>
        <time>2016-08-21T09:23:50Z</time>
      </trkpt>
      <trkpt lat="48.36605" lon="2.60815">
        <ele>125.59</ele>
        <time>2016-08-21T09:23:56Z</time>
      </trkpt>
      <trkpt lat="48.36604" lon="2.60827">
        <ele>125.59</ele>
        <time>2016-08-21T09:24:01Z</time>
      </trkpt>
      <trkpt lat="48.366" lon="2.60839">
        <ele>125.59</ele>
        <time>2016-08-21T09:24:08Z</time>
      </trkpt>
      <trkpt lat="48.36597" lon="2.60849">
        <ele>125.11</ele>
        <time>2016-08-21T09:24:15Z</time>
      </trkpt>
      <trkpt lat="48.36593" lon="2.60857">
        <ele>124.63</ele>
        <time>2016-08-21T09:24:21Z</time>
      </trkpt>
      <trkpt lat="48.36587" lon="2.60878">
        <ele>125.59</ele>
        <time>2016-08-21T09:24:33Z</time>
      </trkpt>
      <trkpt lat="48.36583" lon="2.60904">
        <ele>125.59</ele>
        <time>2016-08-21T09:24:47Z</time>
      </trkpt>
      <trkpt lat="48.3658" lon="2.60916">
        <ele>125.11</ele>
        <time>2016-08-21T09:24:56Z</time>
      </trkpt>
      <trkpt lat="48.36579" lon="2.6093">
        <ele>125.11</ele>
        <time>2016-08-21T09:25:03Z</time>
      </trkpt>
      <trkpt lat="48.36572" lon="2.60959">
        <ele>125.11</ele>
        <time>2016-08-21T09:25:18Z</time>
      </trkpt>
      <trkpt lat="48.36566" lon="2.60979">
        <ele>125.11</ele>
        <time>2016-08-21T09:25:30Z</time>
      </trkpt>
      <trkpt lat="48.36564" lon="2.60987">
        <ele>125.59</ele>
        <time>2016-08-21T09:25:35Z</time>
      </trkpt>
      <trkpt lat="48.36562" lon="2.60992">
        <ele>125.59</ele>
        <time>2016-08-21T09:25:38Z</time>
      </trkpt>
      <trkpt lat="48.36559" lon="2.61007">
        <ele>125.59</ele>
        <time>2016-08-21T09:25:48Z</time>
      </trkpt>
      <trkpt lat="48.36556" lon="2.61029">
        <ele>126.07</ele>
        <time>2016-08-21T09:26:00Z</time>
      </trkpt>
      <trkpt lat="48.36551" lon="2.61047">
        <ele>125.59</ele>
        <time>2016-08-21T09:26:09Z</time>
      </trkpt>
      <trkpt lat="48.36552" lon="2.61049">
        <ele>125.59</ele>
        <time>2016-08-21T09:26:11Z</time>
      </trkpt>
      <trkpt lat="48.36549" lon="2.61058">
        <ele>125.11</ele>
        <time>2016-08-21T09:26:17Z</time>
      </trkpt>
      <trkpt lat="48.36544" lon="2.61076">
        <ele>126.07</ele>
        <time>2016-08-21T09:26:29Z</time>
      </trkpt>
      <trkpt lat="48.36543" lon="2.6108">
        <ele>126.07</ele>
        <time>2016-08-21T09:26:31Z</time>
      </trkpt>
      <trkpt lat="48.3654" lon="2.61095">
        <ele>126.55</ele>
        <time>2016-08-21T09:26:40Z</time>
      </trkpt>
      <trkpt lat="48.36539" lon="2.61098">
        <ele>126.07</ele>
        <time>2016-08-21T09:26:42Z</time>
      </trkpt>
      <trkpt lat="48.36538" lon="2.61106">
        <ele>126.07</ele>
        <time>2016-08-21T09:26:46Z</time>
      </trkpt>
      <trkpt lat="48.36539" lon="2.61108">
        <ele>125.59</ele>
        <time>2016-08-21T09:26:48Z</time>
      </trkpt>
      <trkpt lat="48.36536" lon="2.61114">
        <ele>125.59</ele>
        <time>2016-08-21T09:26:53Z</time>
      </trkpt>
      <trkpt lat="48.36533" lon="2.61123">
        <ele>125.59</ele>
        <time>2016-08-21T09:26:58Z</time>
      </trkpt>
      <trkpt lat="48.36528" lon="2.61139">
        <ele>125.11</ele>
        <time>2016-08-21T09:27:09Z</time>
      </trkpt>
      <trkpt lat="48.36524" lon="2.61153">
        <ele>125.59</ele>
        <time>2016-08-21T09:27:18Z</time>
      </trkpt>
      <trkpt lat="48.36525" lon="2.61162">
        <ele>125.11</ele>
        <time>2016-08-21T09:27:23Z</time>
      </trkpt>
      <trkpt lat="48.36522" lon="2.61171">
        <ele>124.63</ele>
        <time>2016-08-21T09:27:29Z</time>
      </trkpt>
      <trkpt lat="48.3652" lon="2.6118">
        <ele>125.59</ele>
        <time>2016-08-21T09:27:35Z</time>
      </trkpt>
      <trkpt lat="48.36517" lon="2.6119">
        <ele>124.63</ele>
        <time>2016-08-21T09:27:40Z</time>
      </trkpt>
      <trkpt lat="48.36512" lon="2.61201">
        <ele>124.15</ele>
        <time>2016-08-21T09:27:47Z</time>
      </trkpt>
      <trkpt lat="48.36512" lon="2.61213">
        <ele>125.11</ele>
        <time>2016-08-21T09:27:54Z</time>
      </trkpt>
      <trkpt lat="48.36509" lon="2.61228">
        <ele>125.59</ele>
        <time>2016-08-21T09:28:02Z</time>
      </trkpt>
      <trkpt lat="48.36506" lon="2.61235">
        <ele>124.63</ele>
        <time>2016-08-21T09:28:07Z</time>
      </trkpt>
      <trkpt lat="48.36505" lon="2.61244">
        <ele>124.63</ele>
        <time>2016-08-21T09:28:13Z</time>
      </trkpt>
      <trkpt lat="48.365" lon="2.61254">
        <ele>124.15</ele>
        <time>2016-08-21T09:28:19Z</time>
      </trkpt>
      <trkpt lat="48.36498" lon="2.61264">
        <ele>124.15</ele>
        <time>2016-08-21T09:28:25Z</time>
      </trkpt>
      <trkpt lat="48.36497" lon="2.61273">
        <ele>124.15</ele>
        <time>2016-08-21T09:28:31Z</time>
      </trkpt>
      <trkpt lat="48.36495" lon="2.61284">
        <ele>124.15</ele>
        <time>2016-08-21T09:28:37Z</time>
      </trkpt>
      <trkpt lat="48.36493" lon="2.61296">
        <ele>124.15</ele>
        <time>2016-08-21T09:28:45Z</time>
      </trkpt>
      <trkpt lat="48.36491" lon="2.61304">
        <ele>123.19</ele>
        <time>2016-08-21T09:28:50Z</time>
      </trkpt>
      <trkpt lat="48.36489" lon="2.61314">
        <ele>123.67</ele>
        <time>2016-08-21T09:28:57Z</time>
      </trkpt>
      <trkpt lat="48.36487" lon="2.61324">
        <ele>123.19</ele>
        <time>2016-08-21T09:29:02Z</time>
      </trkpt>
      <trkpt lat="48.36485" lon="2.61334">
        <ele>123.19</ele>
        <time>2016-08-21T09:29:08Z</time>
      </trkpt>
      <trkpt lat="48.36484" lon="2.61337">
        <ele>123.67</ele>
        <time>2016-08-21T09:29:10Z</time>
      </trkpt>
      <trkpt lat="48.36475" lon="2.61364">
        <ele>124.15</ele>
        <time>2016-08-21T09:29:26Z</time>
      </trkpt>
      <trkpt lat="48.36475" lon="2.61366">
        <ele>124.63</ele>
        <time>2016-08-21T09:29:28Z</time>
      </trkpt>
      <trkpt lat="48.36474" lon="2.61371">
        <ele>124.15</ele>
        <time>2016-08-21T09:29:31Z</time>
      </trkpt>
      <trkpt lat="48.36473" lon="2.61374">
        <ele>124.15</ele>
        <time>2016-08-21T09:29:33Z</time>
      </trkpt>
      <trkpt lat="48.36467" lon="2.61399">
        <ele>124.15</ele>
        <time>2016-08-21T09:29:48Z</time>
      </trkpt>
      <trkpt lat="48.36464" lon="2.61424">
        <ele>124.63</ele>
        <time>2016-08-21T09:30:04Z</time>
      </trkpt>
      <trkpt lat="48.36467" lon="2.61454">
        <ele>124.63</ele>
        <time>2016-08-21T09:30:21Z</time>
      </trkpt>
      <trkpt lat="48.36468" lon="2.61459">
        <ele>124.15</ele>
        <time>2016-08-21T09:30:25Z</time>
      </trkpt>
      <trkpt lat="48.36471" lon="2.61483">
        <ele>125.11</ele>
        <time>2016-08-21T09:30:39Z</time>
      </trkpt>
      <trkpt lat="48.3647" lon="2.61485">
        <ele>125.59</ele>
        <time>2016-08-21T09:30:40Z</time>
      </trkpt>
      <trkpt lat="48.36472" lon="2.61491">
        <ele>125.59</ele>
        <time>2016-08-21T09:30:44Z</time>
      </trkpt>
      <trkpt lat="48.36474" lon="2.61512">
        <ele>125.59</ele>
        <time>2016-08-21T09:30:57Z</time>
      </trkpt>
      <trkpt lat="48.36477" lon="2.6154">
        <ele>126.07</ele>
        <time>2016-08-21T09:31:12Z</time>
      </trkpt>
      <trkpt lat="48.36482" lon="2.61568">
        <ele>125.59</ele>
        <time>2016-08-21T09:31:27Z</time>
      </trkpt>
      <trkpt lat="48.36484" lon="2.61596">
        <ele>124.63</ele>
        <time>2016-08-21T09:31:41Z</time>
      </trkpt>
      <trkpt lat="48.36484" lon="2.61614">
        <ele>124.15</ele>
        <time>2016-08-21T09:31:54Z</time>
      </trkpt>
      <trkpt lat="48.36487" lon="2.61637">
        <ele>124.15</ele>
        <time>2016-08-21T09:32:05Z</time>
      </trkpt>
      <trkpt lat="48.36488" lon="2.61658">
        <ele>124.63</ele>
        <time>2016-08-21T09:32:19Z</time>
      </trkpt>
      <trkpt lat="48.36488" lon="2.61661">
        <ele>123.67</ele>
        <time>2016-08-21T09:32:22Z</time>
      </trkpt>
      <trkpt lat="48.36491" lon="2.61674">
        <ele>124.63</ele>
        <time>2016-08-21T09:32:34Z</time>
      </trkpt>
      <trkpt lat="48.36494" lon="2.61679">
        <ele>124.63</ele>
        <time>2016-08-21T09:32:58Z</time>
      </trkpt>
      <trkpt lat="48.36492" lon="2.61688">
        <ele>124.63</ele>
        <time>2016-08-21T09:33:22Z</time>
      </trkpt>
      <trkpt lat="48.36493" lon="2.61693">
        <ele>124.63</ele>
        <time>2016-08-21T09:33:25Z</time>
      </trkpt>
      <trkpt lat="48.36492" lon="2.61706">
        <ele>125.11</ele>
        <time>2016-08-21T09:33:33Z</time>
      </trkpt>
      <trkpt lat="48.36492" lon="2.6171">
        <ele>124.63</ele>
        <time>2016-08-21T09:33:35Z</time>
      </trkpt>
      <trkpt lat="48.36492" lon="2.61718">
        <ele>125.11</ele>
        <time>2016-08-21T09:33:40Z</time>
      </trkpt>
      <trkpt lat="48.36494" lon="2.6174">
        <ele>125.11</ele>
        <time>2016-08-21T09:33:53Z</time>
      </trkpt>
      <trkpt lat="48.36497" lon="2.61763">
        <ele>124.63</ele>
        <time>2016-08-21T09:34:06Z</time>
      </trkpt>
      <trkpt lat="48.365" lon="2.61785">
        <ele>124.63</ele>
        <time>2016-08-21T09:34:18Z</time>
      </trkpt>
      <trkpt lat="48.36505" lon="2.61816">
        <ele>124.63</ele>
        <time>2016-08-21T09:34:32Z</time>
      </trkpt>
      <trkpt lat="48.36508" lon="2.61832">
        <ele>125.11</ele>
        <time>2016-08-21T09:34:45Z</time>
      </trkpt>
      <trkpt lat="48.36508" lon="2.61843">
        <ele>124.63</ele>
        <time>2016-08-21T09:34:49Z</time>
      </trkpt>
      <trkpt lat="48.36507" lon="2.6185">
        <ele>124.63</ele>
        <time>2016-08-21T09:34:52Z</time>
      </trkpt>
      <trkpt lat="48.36508" lon="2.61875">
        <ele>125.11</ele>
        <time>2016-08-21T09:35:07Z</time>
      </trkpt>
      <trkpt lat="48.36509" lon="2.61893">
        <ele>124.63</ele>
        <time>2016-08-21T09:35:21Z</time>
      </trkpt>
      <trkpt lat="48.3651" lon="2.61903">
        <ele>125.11</ele>
        <time>2016-08-21T09:35:28Z</time>
      </trkpt>
      <trkpt lat="48.36511" lon="2.61917">
        <ele>125.11</ele>
        <time>2016-08-21T09:35:36Z</time>
      </trkpt>
      <trkpt lat="48.36514" lon="2.61935">
        <ele>125.11</ele>
        <time>2016-08-21T09:35:46Z</time>
      </trkpt>
      <trkpt lat="48.36515" lon="2.61946">
        <ele>125.59</ele>
        <time>2016-08-21T09:35:52Z</time>
      </trkpt>
      <trkpt lat="48.36515" lon="2.61955">
        <ele>125.59</ele>
        <time>2016-08-21T09:35:57Z</time>
      </trkpt>
      <trkpt lat="48.36516" lon="2.61966">
        <ele>125.59</ele>
        <time>2016-08-21T09:36:03Z</time>
      </trkpt>
      <trkpt lat="48.36521" lon="2.61991">
        <ele>126.55</ele>
        <time>2016-08-21T09:36:16Z</time>
      </trkpt>
      <trkpt lat="48.36522" lon="2.62017">
        <ele>126.55</ele>
        <time>2016-08-21T09:36:29Z</time>
      </trkpt>
      <trkpt lat="48.36523" lon="2.62026">
        <ele>126.55</ele>
        <time>2016-08-21T09:36:34Z</time>
      </trkpt>
      <trkpt lat="48.36527" lon="2.62037">
        <ele>126.55</ele>
        <time>2016-08-21T09:36:41Z</time>
      </trkpt>
      <trkpt lat="48.36529" lon="2.62048">
        <ele>126.55</ele>
        <time>2016-08-21T09:36:46Z</time>
      </trkpt>
      <trkpt lat="48.36528" lon="2.62062">
        <ele>127.03</ele>
        <time>2016-08-21T09:36:54Z</time>
      </trkpt>
      <trkpt lat="48.36527" lon="2.62073">
        <ele>127.03</ele>
        <time>2016-08-21T09:36:59Z</time>
      </trkpt>
      <trkpt lat="48.36528" lon="2.62092">
        <ele>127.51</ele>
        <time>2016-08-21T09:37:11Z</time>
      </trkpt>
      <trkpt lat="48.36529" lon="2.62103">
        <ele>127.51</ele>
        <time>2016-08-21T09:37:19Z</time>
      </trkpt>
      <trkpt lat="48.36529" lon="2.62129">
        <ele>127.99</ele>
        <time>2016-08-21T09:37:34Z</time>
      </trkpt>
      <trkpt lat="48.36531" lon="2.6216">
        <ele>127.99</ele>
        <time>2016-08-21T09:37:47Z</time>
      </trkpt>
      <trkpt lat="48.3653" lon="2.62186">
        <ele>128.47</ele>
        <time>2016-08-21T09:38:01Z</time>
      </trkpt>
      <trkpt lat="48.36528" lon="2.6219">
        <ele>128.95</ele>
        <time>2016-08-21T09:38:12Z</time>
      </trkpt>
      <trkpt lat="48.36525" lon="2.6219">
        <ele>128.47</ele>
        <time>2016-08-21T09:38:31Z</time>
      </trkpt>
      <trkpt lat="48.36504" lon="2.62194">
        <ele>128.47</ele>
        <time>2016-08-21T09:38:47Z</time>
      </trkpt>
      <trkpt lat="48.36492" lon="2.62197">
        <ele>127.99</ele>
        <time>2016-08-21T09:38:59Z</time>
      </trkpt>
      <trkpt lat="48.3649" lon="2.62196">
        <ele>127.99</ele>
        <time>2016-08-21T09:39:01Z</time>
      </trkpt>
      <trkpt lat="48.36477" lon="2.62196">
        <ele>127.99</ele>
        <time>2016-08-21T09:39:14Z</time>
      </trkpt>
      <trkpt lat="48.36472" lon="2.62196">
        <ele>127.99</ele>
        <time>2016-08-21T09:39:18Z</time>
      </trkpt>
      <trkpt lat="48.36464" lon="2.62197">
        <ele>127.99</ele>
        <time>2016-08-21T09:39:25Z</time>
      </trkpt>
      <trkpt lat="48.36456" lon="2.62199">
        <ele>127.99</ele>
        <time>2016-08-21T09:39:32Z</time>
      </trkpt>
      <trkpt lat="48.36443" lon="2.62201">
        <ele>127.51</ele>
        <time>2016-08-21T09:39:42Z</time>
      </trkpt>
      <trkpt lat="48.36439" lon="2.62202">
        <ele>127.51</ele>
        <time>2016-08-21T09:39:45Z</time>
      </trkpt>
      <trkpt lat="48.36431" lon="2.62204">
        <ele>127.99</ele>
        <time>2016-08-21T09:39:51Z</time>
      </trkpt>
      <trkpt lat="48.36428" lon="2.62205">
        <ele>127.51</ele>
        <time>2016-08-21T09:39:54Z</time>
      </trkpt>
      <trkpt lat="48.36424" lon="2.62206">
        <ele>127.51</ele>
        <time>2016-08-21T09:39:57Z</time>
      </trkpt>
      <trkpt lat="48.36419" lon="2.62208">
        <ele>127.51</ele>
        <time>2016-08-21T09:40:03Z</time>
      </trkpt>
      <trkpt lat="48.36416" lon="2.62208">
        <ele>127.03</ele>
        <time>2016-08-21T09:40:06Z</time>
      </trkpt>
      <trkpt lat="48.36401" lon="2.62209">
        <ele>127.51</ele>
        <time>2016-08-21T09:40:20Z</time>
      </trkpt>
      <trkpt lat="48.36398" lon="2.6221">
        <ele>127.51</ele>
        <time>2016-08-21T09:40:22Z</time>
      </trkpt>
      <trkpt lat="48.36395" lon="2.6221">
        <ele>127.51</ele>
        <time>2016-08-21T09:40:24Z</time>
      </trkpt>
      <trkpt lat="48.3639" lon="2.62211">
        <ele>127.03</ele>
        <time>2016-08-21T09:40:27Z</time>
      </trkpt>
      <trkpt lat="48.36381" lon="2.62211">
        <ele>127.51</ele>
        <time>2016-08-21T09:40:36Z</time>
      </trkpt>
      <trkpt lat="48.36377" lon="2.62213">
        <ele>127.99</ele>
        <time>2016-08-21T09:40:39Z</time>
      </trkpt>
      <trkpt lat="48.36362" lon="2.62213">
        <ele>127.51</ele>
        <time>2016-08-21T09:40:53Z</time>
      </trkpt>
      <trkpt lat="48.36342" lon="2.62219">
        <ele>127.51</ele>
        <time>2016-08-21T09:41:07Z</time>
      </trkpt>
      <trkpt lat="48.3633" lon="2.62226">
        <ele>127.51</ele>
        <time>2016-08-21T09:41:18Z</time>
      </trkpt>
      <trkpt lat="48.36316" lon="2.62228">
        <ele>127.99</ele>
        <time>2016-08-21T09:41:29Z</time>
      </trkpt>
      <trkpt lat="48.36301" lon="2.62233">
        <ele>128.95</ele>
        <time>2016-08-21T09:41:45Z</time>
      </trkpt>
      <trkpt lat="48.36285" lon="2.62238">
        <ele>128.47</ele>
        <time>2016-08-21T09:41:58Z</time>
      </trkpt>
      <trkpt lat="48.36283" lon="2.62242">
        <ele>128.47</ele>
        <time>2016-08-21T09:42:12Z</time>
      </trkpt>
      <trkpt lat="48.36286" lon="2.62243">
        <ele>128.95</ele>
        <time>2016-08-21T09:42:31Z</time>
      </trkpt>
      <trkpt lat="48.36286" lon="2.62238">
        <ele>128.47</ele>
        <time>2016-08-21T09:42:42Z</time>
      </trkpt>
      <trkpt lat="48.36288" lon="2.62241">
        <ele>128.95</ele>
        <time>2016-08-21T09:42:53Z</time>
      </trkpt>
      <trkpt lat="48.36288" lon="2.62243">
        <ele>128.95</ele>
        <time>2016-08-21T09:43:14Z</time>
      </trkpt>
      <trkpt lat="48.36288" lon="2.62245">
        <ele>129.43</ele>
        <time>2016-08-21T09:43:33Z</time>
      </trkpt>
      <trkpt lat="48.36289" lon="2.62246">
        <ele>128.95</ele>
        <time>2016-08-21T09:43:51Z</time>
      </trkpt>
      <trkpt lat="48.36289" lon="2.62246">
        <ele>128.95</ele>
        <time>2016-08-21T09:44:11Z</time>
      </trkpt>
      <trkpt lat="48.36288" lon="2.62246">
        <ele>128.95</ele>
        <time>2016-08-21T09:44:33Z</time>
      </trkpt>
      <trkpt lat="48.36289" lon="2.62246">
        <ele>128.95</ele>
        <time>2016-08-21T09:44:55Z</time>
      </trkpt>
      <trkpt lat="48.36289" lon="2.62247">
        <ele>128.95</ele>
        <time>2016-08-21T09:45:17Z</time>
      </trkpt>
      <trkpt lat="48.36289" lon="2.62248">
        <ele>128.95</ele>
        <time>2016-08-21T09:45:44Z</time>
      </trkpt>
      <trkpt lat="48.36289" lon="2.62247">
        <ele>129.43</ele>
        <time>2016-08-21T09:46:11Z</time>
      </trkpt>
      <trkpt lat="48.36289" lon="2.62246">
        <ele>128.95</ele>
        <time>2016-08-21T09:46:35Z</time>
      </trkpt>
      <trkpt lat="48.36289" lon="2.62246">
        <ele>128.95</ele>
        <time>2016-08-21T09:47:02Z</time>
      </trkpt>
      <trkpt lat="48.3629" lon="2.6225">
        <ele>130.4</ele>
        <time>2016-08-21T09:47:26Z</time>
      </trkpt>
      <trkpt lat="48.36292" lon="2.62254">
        <ele>129.43</ele>
        <time>2016-08-21T09:47:32Z</time>
      </trkpt>
      <trkpt lat="48.36295" lon="2.62264">
        <ele>128.95</ele>
        <time>2016-08-21T09:47:44Z</time>
      </trkpt>
      <trkpt lat="48.36292" lon="2.62245">
        <ele>128.95</ele>
        <time>2016-08-21T09:47:58Z</time>
      </trkpt>
      <trkpt lat="48.36284" lon="2.62238">
        <ele>128.95</ele>
        <time>2016-08-21T09:48:15Z</time>
      </trkpt>
      <trkpt lat="48.36284" lon="2.62237">
        <ele>128.47</ele>
        <time>2016-08-21T09:48:26Z</time>
      </trkpt>
      <trkpt lat="48.36278" lon="2.62237">
        <ele>128.95</ele>
        <time>2016-08-21T09:48:33Z</time>
      </trkpt>
      <trkpt lat="48.36272" lon="2.62238">
        <ele>128.47</ele>
        <time>2016-08-21T09:48:40Z</time>
      </trkpt>
      <trkpt lat="48.36257" lon="2.62236">
        <ele>128.47</ele>
        <time>2016-08-21T09:48:53Z</time>
      </trkpt>
      <trkpt lat="48.36252" lon="2.62235">
        <ele>128.95</ele>
        <time>2016-08-21T09:49:05Z</time>
      </trkpt>
      <trkpt lat="48.36245" lon="2.62241">
        <ele>128.47</ele>
        <time>2016-08-21T09:49:17Z</time>
      </trkpt>
      <trkpt lat="48.36233" lon="2.62244">
        <ele>128.95</ele>
        <time>2016-08-21T09:49:29Z</time>
      </trkpt>
      <trkpt lat="48.3622" lon="2.62248">
        <ele>128.47</ele>
        <time>2016-08-21T09:49:42Z</time>
      </trkpt>
      <trkpt lat="48.36206" lon="2.62251">
        <ele>128.47</ele>
        <time>2016-08-21T09:49:55Z</time>
      </trkpt>
      <trkpt lat="48.36192" lon="2.62255">
        <ele>128.47</ele>
        <time>2016-08-21T09:50:07Z</time>
      </trkpt>
      <trkpt lat="48.36185" lon="2.62256">
        <ele>128.47</ele>
        <time>2016-08-21T09:50:18Z</time>
      </trkpt>
      <trkpt lat="48.36186" lon="2.62256">
        <ele>128.47</ele>
        <time>2016-08-21T09:50:19Z</time>
      </trkpt>
      <trkpt lat="48.36183" lon="2.62258">
        <ele>128.47</ele>
        <time>2016-08-21T09:50:21Z</time>
      </trkpt>
      <trkpt lat="48.36176" lon="2.62259">
        <ele>127.99</ele>
        <time>2016-08-21T09:50:26Z</time>
      </trkpt>
      <trkpt lat="48.3616" lon="2.62262">
        <ele>128.47</ele>
        <time>2016-08-21T09:50:41Z</time>
      </trkpt>
      <trkpt lat="48.36149" lon="2.62264">
        <ele>127.99</ele>
        <time>2016-08-21T09:50:50Z</time>
      </trkpt>
      <trkpt lat="48.36136" lon="2.62268">
        <ele>128.47</ele>
        <time>2016-08-21T09:51:00Z</time>
      </trkpt>
      <trkpt lat="48.3613" lon="2.6227">
        <ele>127.51</ele>
        <time>2016-08-21T09:51:04Z</time>
      </trkpt>
      <trkpt lat="48.36112" lon="2.62275">
        <ele>127.99</ele>
        <time>2016-08-21T09:51:18Z</time>
      </trkpt>
      <trkpt lat="48.36096" lon="2.6228">
        <ele>128.47</ele>
        <time>2016-08-21T09:51:30Z</time>
      </trkpt>
      <trkpt lat="48.36091" lon="2.62281">
        <ele>127.51</ele>
        <time>2016-08-21T09:51:34Z</time>
      </trkpt>
      <trkpt lat="48.36088" lon="2.62281">
        <ele>127.99</ele>
        <time>2016-08-21T09:51:37Z</time>
      </trkpt>
      <trkpt lat="48.36084" lon="2.62281">
        <ele>127.99</ele>
        <time>2016-08-21T09:51:40Z</time>
      </trkpt>
      <trkpt lat="48.36076" lon="2.62285">
        <ele>127.51</ele>
        <time>2016-08-21T09:51:47Z</time>
      </trkpt>
      <trkpt lat="48.36072" lon="2.62285">
        <ele>127.51</ele>
        <time>2016-08-21T09:51:51Z</time>
      </trkpt>
      <trkpt lat="48.36056" lon="2.62287">
        <ele>127.51</ele>
        <time>2016-08-21T09:52:06Z</time>
      </trkpt>
      <trkpt lat="48.36047" lon="2.62286">
        <ele>127.51</ele>
        <time>2016-08-21T09:52:16Z</time>
      </trkpt>
      <trkpt lat="48.36036" lon="2.62288">
        <ele>127.51</ele>
        <time>2016-08-21T09:52:24Z</time>
      </trkpt>
      <trkpt lat="48.3603" lon="2.62289">
        <ele>127.99</ele>
        <time>2016-08-21T09:52:28Z</time>
      </trkpt>
      <trkpt lat="48.36018" lon="2.62294">
        <ele>127.03</ele>
        <time>2016-08-21T09:52:36Z</time>
      </trkpt>
      <trkpt lat="48.36006" lon="2.62299">
        <ele>127.03</ele>
        <time>2016-08-21T09:52:51Z</time>
      </trkpt>
      <trkpt lat="48.35994" lon="2.62301">
        <ele>127.03</ele>
        <time>2016-08-21T09:53:01Z</time>
      </trkpt>
      <trkpt lat="48.35987" lon="2.62301">
        <ele>127.51</ele>
        <time>2016-08-21T09:53:06Z</time>
      </trkpt>
      <trkpt lat="48.35973" lon="2.62303">
        <ele>127.51</ele>
        <time>2016-08-21T09:53:17Z</time>
      </trkpt>
      <trkpt lat="48.35968" lon="2.62303">
        <ele>127.51</ele>
        <time>2016-08-21T09:53:21Z</time>
      </trkpt>
      <trkpt lat="48.35954" lon="2.62309">
        <ele>127.03</ele>
        <time>2016-08-21T09:53:32Z</time>
      </trkpt>
      <trkpt lat="48.35935" lon="2.62312">
        <ele>126.55</ele>
        <time>2016-08-21T09:53:47Z</time>
      </trkpt>
      <trkpt lat="48.35934" lon="2.62311">
        <ele>126.55</ele>
        <time>2016-08-21T09:53:48Z</time>
      </trkpt>
      <trkpt lat="48.3593" lon="2.62311">
        <ele>126.55</ele>
        <time>2016-08-21T09:53:51Z</time>
      </trkpt>
      <trkpt lat="48.35924" lon="2.62314">
        <ele>127.03</ele>
        <time>2016-08-21T09:53:56Z</time>
      </trkpt>
      <trkpt lat="48.35919" lon="2.62316">
        <ele>126.55</ele>
        <time>2016-08-21T09:54:00Z</time>
      </trkpt>
      <trkpt lat="48.35915" lon="2.62317">
        <ele>126.55</ele>
        <time>2016-08-21T09:54:03Z</time>
      </trkpt>
      <trkpt lat="48.359" lon="2.62322">
        <ele>126.55</ele>
        <time>2016-08-21T09:54:15Z</time>
      </trkpt>
      <trkpt lat="48.35887" lon="2.62323">
        <ele>127.03</ele>
        <time>2016-08-21T09:54:27Z</time>
      </trkpt>
      <trkpt lat="48.35882" lon="2.6232">
        <ele>127.03</ele>
        <time>2016-08-21T09:54:42Z</time>
      </trkpt>
      <trkpt lat="48.35883" lon="2.62314">
        <ele>127.03</ele>
        <time>2016-08-21T09:54:54Z</time>
      </trkpt>
      <trkpt lat="48.35882" lon="2.62278">
        <ele>127.03</ele>
        <time>2016-08-21T09:55:11Z</time>
      </trkpt>
      <trkpt lat="48.35882" lon="2.62274">
        <ele>127.51</ele>
        <time>2016-08-21T09:55:13Z</time>
      </trkpt>
      <trkpt lat="48.35881" lon="2.62264">
        <ele>127.51</ele>
        <time>2016-08-21T09:55:16Z</time>
      </trkpt>
      <trkpt lat="48.35881" lon="2.62235">
        <ele>127.03</ele>
        <time>2016-08-21T09:55:29Z</time>
      </trkpt>
      <trkpt lat="48.35882" lon="2.62217">
        <ele>127.51</ele>
        <time>2016-08-21T09:55:43Z</time>
      </trkpt>
      <trkpt lat="48.3588" lon="2.62206">
        <ele>127.51</ele>
        <time>2016-08-21T09:55:47Z</time>
      </trkpt>
      <trkpt lat="48.3588" lon="2.62186">
        <ele>127.03</ele>
        <time>2016-08-21T09:55:58Z</time>
      </trkpt>
      <trkpt lat="48.3588" lon="2.62181">
        <ele>127.03</ele>
        <time>2016-08-21T09:56:01Z</time>
      </trkpt>
      <trkpt lat="48.35879" lon="2.62167">
        <ele>127.03</ele>
        <time>2016-08-21T09:56:08Z</time>
      </trkpt>
      <trkpt lat="48.3588" lon="2.62155">
        <ele>127.03</ele>
        <time>2016-08-21T09:56:14Z</time>
      </trkpt>
      <trkpt lat="48.3588" lon="2.62129">
        <ele>127.03</ele>
        <time>2016-08-21T09:56:28Z</time>
      </trkpt>
      <trkpt lat="48.35879" lon="2.621">
        <ele>127.03</ele>
        <time>2016-08-21T09:56:41Z</time>
      </trkpt>
      <trkpt lat="48.35882" lon="2.62088">
        <ele>126.55</ele>
        <time>2016-08-21T09:56:50Z</time>
      </trkpt>
      <trkpt lat="48.35882" lon="2.62082">
        <ele>127.03</ele>
        <time>2016-08-21T09:56:53Z</time>
      </trkpt>
      <trkpt lat="48.35882" lon="2.62047">
        <ele>126.07</ele>
        <time>2016-08-21T09:57:11Z</time>
      </trkpt>
      <trkpt lat="48.35884" lon="2.62016">
        <ele>126.07</ele>
        <time>2016-08-21T09:57:30Z</time>
      </trkpt>
      <trkpt lat="48.35882" lon="2.61983">
        <ele>125.11</ele>
        <time>2016-08-21T09:57:46Z</time>
      </trkpt>
      <trkpt lat="48.35885" lon="2.61955">
        <ele>126.07</ele>
        <time>2016-08-21T09:58:02Z</time>
      </trkpt>
      <trkpt lat="48.35883" lon="2.61927">
        <ele>125.11</ele>
        <time>2016-08-21T09:58:19Z</time>
      </trkpt>
      <trkpt lat="48.35883" lon="2.61896">
        <ele>125.11</ele>
        <time>2016-08-21T09:58:34Z</time>
      </trkpt>
      <trkpt lat="48.35884" lon="2.61872">
        <ele>124.63</ele>
        <time>2016-08-21T09:58:48Z</time>
      </trkpt>
      <trkpt lat="48.35884" lon="2.61841">
        <ele>124.63</ele>
        <time>2016-08-21T09:59:05Z</time>
      </trkpt>
      <trkpt lat="48.35883" lon="2.61814">
        <ele>124.63</ele>
        <time>2016-08-21T09:59:19Z</time>
      </trkpt>
      <trkpt lat="48.35885" lon="2.61791">
        <ele>124.15</ele>
        <time>2016-08-21T09:59:34Z</time>
      </trkpt>
      <trkpt lat="48.35885" lon="2.61779">
        <ele>124.63</ele>
        <time>2016-08-21T09:59:42Z</time>
      </trkpt>
      <trkpt lat="48.35884" lon="2.61738">
        <ele>123.67</ele>
        <time>2016-08-21T09:59:59Z</time>
      </trkpt>
      <trkpt lat="48.35881" lon="2.61704">
        <ele>123.19</ele>
        <time>2016-08-21T10:00:18Z</time>
      </trkpt>
      <trkpt lat="48.35866" lon="2.61711">
        <ele>123.19</ele>
        <time>2016-08-21T10:00:33Z</time>
      </trkpt>
      <trkpt lat="48.35849" lon="2.61723">
        <ele>123.67</ele>
        <time>2016-08-21T10:00:49Z</time>
      </trkpt>
      <trkpt lat="48.35847" lon="2.61724">
        <ele>123.19</ele>
        <time>2016-08-21T10:00:50Z</time>
      </trkpt>
      <trkpt lat="48.35845" lon="2.61726">
        <ele>123.19</ele>
        <time>2016-08-21T10:00:52Z</time>
      </trkpt>
      <trkpt lat="48.35837" lon="2.6173">
        <ele>123.67</ele>
        <time>2016-08-21T10:01:01Z</time>
      </trkpt>
      <trkpt lat="48.35824" lon="2.61737">
        <ele>123.67</ele>
        <time>2016-08-21T10:01:12Z</time>
      </trkpt>
      <trkpt lat="48.35823" lon="2.61738">
        <ele>123.67</ele>
        <time>2016-08-21T10:01:13Z</time>
      </trkpt>
      <trkpt lat="48.3581" lon="2.61744">
        <ele>123.67</ele>
        <time>2016-08-21T10:01:25Z</time>
      </trkpt>
      <trkpt lat="48.35805" lon="2.61747">
        <ele>123.67</ele>
        <time>2016-08-21T10:01:29Z</time>
      </trkpt>
      <trkpt lat="48.35803" lon="2.61747">
        <ele>123.67</ele>
        <time>2016-08-21T10:01:32Z</time>
      </trkpt>
      <trkpt lat="48.35797" lon="2.6175">
        <ele>123.67</ele>
        <time>2016-08-21T10:01:36Z</time>
      </trkpt>
      <trkpt lat="48.35788" lon="2.61755">
        <ele>123.67</ele>
        <time>2016-08-21T10:01:45Z</time>
      </trkpt>
      <trkpt lat="48.35779" lon="2.61759">
        <ele>124.15</ele>
        <time>2016-08-21T10:01:52Z</time>
      </trkpt>
      <trkpt lat="48.35776" lon="2.6176">
        <ele>123.67</ele>
        <time>2016-08-21T10:01:54Z</time>
      </trkpt>
      <trkpt lat="48.35761" lon="2.61764">
        <ele>123.67</ele>
        <time>2016-08-21T10:02:08Z</time>
      </trkpt>
      <trkpt lat="48.35757" lon="2.61767">
        <ele>123.19</ele>
        <time>2016-08-21T10:02:11Z</time>
      </trkpt>
      <trkpt lat="48.35746" lon="2.61774">
        <ele>123.67</ele>
        <time>2016-08-21T10:02:22Z</time>
      </trkpt>
      <trkpt lat="48.35741" lon="2.61776">
        <ele>123.67</ele>
        <time>2016-08-21T10:02:27Z</time>
      </trkpt>
      <trkpt lat="48.35729" lon="2.6178">
        <ele>123.19</ele>
        <time>2016-08-21T10:02:39Z</time>
      </trkpt>
      <trkpt lat="48.35728" lon="2.61781">
        <ele>122.71</ele>
        <time>2016-08-21T10:02:40Z</time>
      </trkpt>
      <trkpt lat="48.35713" lon="2.61791">
        <ele>123.19</ele>
        <time>2016-08-21T10:02:52Z</time>
      </trkpt>
      <trkpt lat="48.35703" lon="2.61795">
        <ele>122.71</ele>
        <time>2016-08-21T10:03:00Z</time>
      </trkpt>
      <trkpt lat="48.35691" lon="2.618">
        <ele>122.71</ele>
        <time>2016-08-21T10:03:14Z</time>
      </trkpt>
      <trkpt lat="48.3568" lon="2.61806">
        <ele>123.19</ele>
        <time>2016-08-21T10:03:21Z</time>
      </trkpt>
      <trkpt lat="48.35663" lon="2.61815">
        <ele>122.71</ele>
        <time>2016-08-21T10:03:33Z</time>
      </trkpt>
      <trkpt lat="48.35648" lon="2.61823">
        <ele>123.19</ele>
        <time>2016-08-21T10:03:45Z</time>
      </trkpt>
      <trkpt lat="48.35643" lon="2.61825">
        <ele>122.71</ele>
        <time>2016-08-21T10:03:49Z</time>
      </trkpt>
      <trkpt lat="48.35633" lon="2.61831">
        <ele>122.71</ele>
        <time>2016-08-21T10:03:57Z</time>
      </trkpt>
      <trkpt lat="48.35625" lon="2.61835">
        <ele>122.71</ele>
        <time>2016-08-21T10:04:04Z</time>
      </trkpt>
      <trkpt lat="48.35616" lon="2.61839">
        <ele>122.71</ele>
        <time>2016-08-21T10:04:12Z</time>
      </trkpt>
      <trkpt lat="48.35609" lon="2.61843">
        <ele>122.71</ele>
        <time>2016-08-21T10:04:19Z</time>
      </trkpt>
      <trkpt lat="48.35601" lon="2.61845">
        <ele>122.71</ele>
        <time>2016-08-21T10:04:31Z</time>
      </trkpt>
      <trkpt lat="48.356" lon="2.61845">
        <ele>122.22</ele>
        <time>2016-08-21T10:04:32Z</time>
      </trkpt>
      <trkpt lat="48.35591" lon="2.61849">
        <ele>122.71</ele>
        <time>2016-08-21T10:04:39Z</time>
      </trkpt>
      <trkpt lat="48.3557" lon="2.61861">
        <ele>122.22</ele>
        <time>2016-08-21T10:04:53Z</time>
      </trkpt>
    </trkseg>
  </trk>
</gpx>